<?xml version="1.0" encoding="UTF-8" standalone="no" ?>
<gpx xmlns="http://www.topografix.com/GPX/1/1" xmlns:xsi="http://www.w3.org/2001/XMLSchema-instance" xsi:schemaLocation="http://www.topografix.com/GPX/1/1 http://www.topografix.com/GPX/1/1/gpx.xsd" version="1.1" creator="VisuGPX - https://www.visugpx.com">
  <metadata>
    <name>Tracé actuel: 27 MAI 2019 13:03</name>
    <desc><![CDATA[super content une partie de la cote de villers goudronné]]></desc>
  </metadata>
  <trk>
    <name><![CDATA[Tracé actuel: 27 MAI 2019 13:03]]></name>
    <trkseg>
      <trkpt lat="49.63451" lon="4.98054">
        <ele>177.98</ele>
        <time>2019-05-27T11:03:28Z</time>
      </trkpt>
      <trkpt lat="49.63438" lon="4.9805">
        <ele>177.98</ele>
        <time>2019-05-27T11:03:44Z</time>
      </trkpt>
      <trkpt lat="49.63447" lon="4.98041">
        <ele>177.98</ele>
        <time>2019-05-27T11:03:54Z</time>
      </trkpt>
      <trkpt lat="49.63444" lon="4.98039">
        <ele>177.98</ele>
        <time>2019-05-27T11:03:59Z</time>
      </trkpt>
      <trkpt lat="49.63443" lon="4.98037">
        <ele>190.48</ele>
        <time>2019-05-27T11:04:11Z</time>
      </trkpt>
      <trkpt lat="49.63456" lon="4.98045">
        <ele>227.97</ele>
        <time>2019-05-27T11:04:27Z</time>
      </trkpt>
      <trkpt lat="49.63496" lon="4.98055">
        <ele>286.13</ele>
        <time>2019-05-27T11:04:43Z</time>
      </trkpt>
      <trkpt lat="49.63502" lon="4.98047">
        <ele>291.9</ele>
        <time>2019-05-27T11:04:59Z</time>
      </trkpt>
      <trkpt lat="49.63504" lon="4.98028">
        <ele>282.77</ele>
        <time>2019-05-27T11:05:16Z</time>
      </trkpt>
      <trkpt lat="49.63503" lon="4.98026">
        <ele>282.77</ele>
        <time>2019-05-27T11:05:23Z</time>
      </trkpt>
      <trkpt lat="49.63512" lon="4.98015">
        <ele>273.15</ele>
        <time>2019-05-27T11:05:37Z</time>
      </trkpt>
      <trkpt lat="49.63504" lon="4.97975">
        <ele>247.2</ele>
        <time>2019-05-27T11:05:55Z</time>
      </trkpt>
      <trkpt lat="49.63503" lon="4.97972">
        <ele>245.27</ele>
        <time>2019-05-27T11:05:57Z</time>
      </trkpt>
      <trkpt lat="49.63431" lon="4.97907">
        <ele>173.66</ele>
        <time>2019-05-27T11:06:13Z</time>
      </trkpt>
      <trkpt lat="49.63446" lon="4.97896">
        <ele>173.66</ele>
        <time>2019-05-27T11:06:30Z</time>
      </trkpt>
      <trkpt lat="49.63456" lon="4.97881">
        <ele>169.33</ele>
        <time>2019-05-27T11:06:45Z</time>
      </trkpt>
      <trkpt lat="49.6347" lon="4.97862">
        <ele>170.77</ele>
        <time>2019-05-27T11:07:01Z</time>
      </trkpt>
      <trkpt lat="49.63476" lon="4.9786">
        <ele>171.25</ele>
        <time>2019-05-27T11:07:04Z</time>
      </trkpt>
      <trkpt lat="49.63489" lon="4.9784">
        <ele>170.77</ele>
        <time>2019-05-27T11:07:22Z</time>
      </trkpt>
      <trkpt lat="49.63504" lon="4.97821">
        <ele>169.33</ele>
        <time>2019-05-27T11:07:40Z</time>
      </trkpt>
      <trkpt lat="49.63511" lon="4.97811">
        <ele>170.29</ele>
        <time>2019-05-27T11:07:50Z</time>
      </trkpt>
      <trkpt lat="49.63525" lon="4.97792">
        <ele>166.93</ele>
        <time>2019-05-27T11:08:09Z</time>
      </trkpt>
      <trkpt lat="49.63533" lon="4.97785">
        <ele>166.45</ele>
        <time>2019-05-27T11:08:18Z</time>
      </trkpt>
      <trkpt lat="49.63544" lon="4.97761">
        <ele>166.45</ele>
        <time>2019-05-27T11:08:34Z</time>
      </trkpt>
      <trkpt lat="49.63553" lon="4.97739">
        <ele>164.52</ele>
        <time>2019-05-27T11:08:51Z</time>
      </trkpt>
      <trkpt lat="49.63564" lon="4.97711">
        <ele>165.48</ele>
        <time>2019-05-27T11:09:10Z</time>
      </trkpt>
      <trkpt lat="49.63569" lon="4.977">
        <ele>166.45</ele>
        <time>2019-05-27T11:09:18Z</time>
      </trkpt>
      <trkpt lat="49.63578" lon="4.97686">
        <ele>168.37</ele>
        <time>2019-05-27T11:09:35Z</time>
      </trkpt>
      <trkpt lat="49.63585" lon="4.97674">
        <ele>169.81</ele>
        <time>2019-05-27T11:09:50Z</time>
      </trkpt>
      <trkpt lat="49.63602" lon="4.97661">
        <ele>172.21</ele>
        <time>2019-05-27T11:10:06Z</time>
      </trkpt>
      <trkpt lat="49.63621" lon="4.97654">
        <ele>172.21</ele>
        <time>2019-05-27T11:10:23Z</time>
      </trkpt>
      <trkpt lat="49.63638" lon="4.97633">
        <ele>172.21</ele>
        <time>2019-05-27T11:10:42Z</time>
      </trkpt>
      <trkpt lat="49.63641" lon="4.97624">
        <ele>172.21</ele>
        <time>2019-05-27T11:10:48Z</time>
      </trkpt>
      <trkpt lat="49.63643" lon="4.97618">
        <ele>172.69</ele>
        <time>2019-05-27T11:10:52Z</time>
      </trkpt>
      <trkpt lat="49.63648" lon="4.97597">
        <ele>172.69</ele>
        <time>2019-05-27T11:11:07Z</time>
      </trkpt>
      <trkpt lat="49.63648" lon="4.97574">
        <ele>173.17</ele>
        <time>2019-05-27T11:11:21Z</time>
      </trkpt>
      <trkpt lat="49.63643" lon="4.97544">
        <ele>175.58</ele>
        <time>2019-05-27T11:11:39Z</time>
      </trkpt>
      <trkpt lat="49.63642" lon="4.97539">
        <ele>176.06</ele>
        <time>2019-05-27T11:11:42Z</time>
      </trkpt>
      <trkpt lat="49.63639" lon="4.97511">
        <ele>177.98</ele>
        <time>2019-05-27T11:11:58Z</time>
      </trkpt>
      <trkpt lat="49.63641" lon="4.97481">
        <ele>180.38</ele>
        <time>2019-05-27T11:12:15Z</time>
      </trkpt>
      <trkpt lat="49.63644" lon="4.97451">
        <ele>182.79</ele>
        <time>2019-05-27T11:12:32Z</time>
      </trkpt>
      <trkpt lat="49.63646" lon="4.97427">
        <ele>182.79</ele>
        <time>2019-05-27T11:12:50Z</time>
      </trkpt>
      <trkpt lat="49.63629" lon="4.97407">
        <ele>180.87</ele>
        <time>2019-05-27T11:13:09Z</time>
      </trkpt>
      <trkpt lat="49.63613" lon="4.97389">
        <ele>180.87</ele>
        <time>2019-05-27T11:13:27Z</time>
      </trkpt>
      <trkpt lat="49.63598" lon="4.9737">
        <ele>181.83</ele>
        <time>2019-05-27T11:13:43Z</time>
      </trkpt>
      <trkpt lat="49.63578" lon="4.97352">
        <ele>183.27</ele>
        <time>2019-05-27T11:14:02Z</time>
      </trkpt>
      <trkpt lat="49.63564" lon="4.97333">
        <ele>183.75</ele>
        <time>2019-05-27T11:14:18Z</time>
      </trkpt>
      <trkpt lat="49.63554" lon="4.97303">
        <ele>183.75</ele>
        <time>2019-05-27T11:14:37Z</time>
      </trkpt>
      <trkpt lat="49.63548" lon="4.97275">
        <ele>182.79</ele>
        <time>2019-05-27T11:14:54Z</time>
      </trkpt>
      <trkpt lat="49.6354" lon="4.97246">
        <ele>181.83</ele>
        <time>2019-05-27T11:15:11Z</time>
      </trkpt>
      <trkpt lat="49.63531" lon="4.97217">
        <ele>181.35</ele>
        <time>2019-05-27T11:15:29Z</time>
      </trkpt>
      <trkpt lat="49.63523" lon="4.97187">
        <ele>181.83</ele>
        <time>2019-05-27T11:15:46Z</time>
      </trkpt>
      <trkpt lat="49.63513" lon="4.97154">
        <ele>182.31</ele>
        <time>2019-05-27T11:16:06Z</time>
      </trkpt>
      <trkpt lat="49.63504" lon="4.97122">
        <ele>183.27</ele>
        <time>2019-05-27T11:16:26Z</time>
      </trkpt>
      <trkpt lat="49.63494" lon="4.97089">
        <ele>182.79</ele>
        <time>2019-05-27T11:16:47Z</time>
      </trkpt>
      <trkpt lat="49.63485" lon="4.97061">
        <ele>183.75</ele>
        <time>2019-05-27T11:17:05Z</time>
      </trkpt>
      <trkpt lat="49.63477" lon="4.97034">
        <ele>183.27</ele>
        <time>2019-05-27T11:17:23Z</time>
      </trkpt>
      <trkpt lat="49.63469" lon="4.97011">
        <ele>181.83</ele>
        <time>2019-05-27T11:17:39Z</time>
      </trkpt>
      <trkpt lat="49.63466" lon="4.96979">
        <ele>179.42</ele>
        <time>2019-05-27T11:17:59Z</time>
      </trkpt>
      <trkpt lat="49.63459" lon="4.9695">
        <ele>178.46</ele>
        <time>2019-05-27T11:18:17Z</time>
      </trkpt>
      <trkpt lat="49.63444" lon="4.96926">
        <ele>177.5</ele>
        <time>2019-05-27T11:18:37Z</time>
      </trkpt>
      <trkpt lat="49.6343" lon="4.96907">
        <ele>176.54</ele>
        <time>2019-05-27T11:18:54Z</time>
      </trkpt>
      <trkpt lat="49.63414" lon="4.96888">
        <ele>176.06</ele>
        <time>2019-05-27T11:19:13Z</time>
      </trkpt>
      <trkpt lat="49.63398" lon="4.96868">
        <ele>175.1</ele>
        <time>2019-05-27T11:19:32Z</time>
      </trkpt>
      <trkpt lat="49.63384" lon="4.96851">
        <ele>173.17</ele>
        <time>2019-05-27T11:19:49Z</time>
      </trkpt>
      <trkpt lat="49.63369" lon="4.9683">
        <ele>172.69</ele>
        <time>2019-05-27T11:20:07Z</time>
      </trkpt>
      <trkpt lat="49.63357" lon="4.96815">
        <ele>171.25</ele>
        <time>2019-05-27T11:20:23Z</time>
      </trkpt>
      <trkpt lat="49.63348" lon="4.96797">
        <ele>170.77</ele>
        <time>2019-05-27T11:20:39Z</time>
      </trkpt>
      <trkpt lat="49.6334" lon="4.9677">
        <ele>168.37</ele>
        <time>2019-05-27T11:20:58Z</time>
      </trkpt>
      <trkpt lat="49.63335" lon="4.96737">
        <ele>169.33</ele>
        <time>2019-05-27T11:21:20Z</time>
      </trkpt>
      <trkpt lat="49.63326" lon="4.96703">
        <ele>169.81</ele>
        <time>2019-05-27T11:21:41Z</time>
      </trkpt>
      <trkpt lat="49.63312" lon="4.96679">
        <ele>172.21</ele>
        <time>2019-05-27T11:21:58Z</time>
      </trkpt>
      <trkpt lat="49.63301" lon="4.96661">
        <ele>172.69</ele>
        <time>2019-05-27T11:22:12Z</time>
      </trkpt>
      <trkpt lat="49.63292" lon="4.96633">
        <ele>170.77</ele>
        <time>2019-05-27T11:22:31Z</time>
      </trkpt>
      <trkpt lat="49.63282" lon="4.96607">
        <ele>172.69</ele>
        <time>2019-05-27T11:22:48Z</time>
      </trkpt>
      <trkpt lat="49.63281" lon="4.96604">
        <ele>173.66</ele>
        <time>2019-05-27T11:22:50Z</time>
      </trkpt>
      <trkpt lat="49.63261" lon="4.9659">
        <ele>175.1</ele>
        <time>2019-05-27T11:23:08Z</time>
      </trkpt>
      <trkpt lat="49.63257" lon="4.96586">
        <ele>175.1</ele>
        <time>2019-05-27T11:23:12Z</time>
      </trkpt>
      <trkpt lat="49.63237" lon="4.9657">
        <ele>175.1</ele>
        <time>2019-05-27T11:23:32Z</time>
      </trkpt>
      <trkpt lat="49.63214" lon="4.96551">
        <ele>177.5</ele>
        <time>2019-05-27T11:23:54Z</time>
      </trkpt>
      <trkpt lat="49.63203" lon="4.96543">
        <ele>177.02</ele>
        <time>2019-05-27T11:24:08Z</time>
      </trkpt>
      <trkpt lat="49.63184" lon="4.96529">
        <ele>177.98</ele>
        <time>2019-05-27T11:24:26Z</time>
      </trkpt>
      <trkpt lat="49.63164" lon="4.96517">
        <ele>177.98</ele>
        <time>2019-05-27T11:24:45Z</time>
      </trkpt>
      <trkpt lat="49.63148" lon="4.96508">
        <ele>177.98</ele>
        <time>2019-05-27T11:25:00Z</time>
      </trkpt>
      <trkpt lat="49.63132" lon="4.96497">
        <ele>178.94</ele>
        <time>2019-05-27T11:25:15Z</time>
      </trkpt>
      <trkpt lat="49.63109" lon="4.96484">
        <ele>178.94</ele>
        <time>2019-05-27T11:25:36Z</time>
      </trkpt>
      <trkpt lat="49.63092" lon="4.96472">
        <ele>178.46</ele>
        <time>2019-05-27T11:25:53Z</time>
      </trkpt>
      <trkpt lat="49.63073" lon="4.96461">
        <ele>178.46</ele>
        <time>2019-05-27T11:26:10Z</time>
      </trkpt>
      <trkpt lat="49.63053" lon="4.96448">
        <ele>178.94</ele>
        <time>2019-05-27T11:26:29Z</time>
      </trkpt>
      <trkpt lat="49.63046" lon="4.96444">
        <ele>179.42</ele>
        <time>2019-05-27T11:26:36Z</time>
      </trkpt>
      <trkpt lat="49.63042" lon="4.96441">
        <ele>179.9</ele>
        <time>2019-05-27T11:26:40Z</time>
      </trkpt>
      <trkpt lat="49.63018" lon="4.96425">
        <ele>180.38</ele>
        <time>2019-05-27T11:27:01Z</time>
      </trkpt>
      <trkpt lat="49.63" lon="4.96412">
        <ele>180.38</ele>
        <time>2019-05-27T11:27:19Z</time>
      </trkpt>
      <trkpt lat="49.62979" lon="4.96398">
        <ele>179.42</ele>
        <time>2019-05-27T11:27:41Z</time>
      </trkpt>
      <trkpt lat="49.62963" lon="4.96385">
        <ele>177.5</ele>
        <time>2019-05-27T11:27:58Z</time>
      </trkpt>
      <trkpt lat="49.62946" lon="4.96374">
        <ele>174.62</ele>
        <time>2019-05-27T11:28:16Z</time>
      </trkpt>
      <trkpt lat="49.62926" lon="4.96361">
        <ele>172.21</ele>
        <time>2019-05-27T11:28:37Z</time>
      </trkpt>
      <trkpt lat="49.62904" lon="4.96343">
        <ele>178.46</ele>
        <time>2019-05-27T11:28:55Z</time>
      </trkpt>
      <trkpt lat="49.62885" lon="4.96329">
        <ele>179.42</ele>
        <time>2019-05-27T11:29:13Z</time>
      </trkpt>
      <trkpt lat="49.62867" lon="4.96315">
        <ele>180.38</ele>
        <time>2019-05-27T11:29:31Z</time>
      </trkpt>
      <trkpt lat="49.62851" lon="4.96306">
        <ele>180.87</ele>
        <time>2019-05-27T11:29:47Z</time>
      </trkpt>
      <trkpt lat="49.62836" lon="4.96295">
        <ele>182.79</ele>
        <time>2019-05-27T11:30:02Z</time>
      </trkpt>
      <trkpt lat="49.62814" lon="4.96294">
        <ele>182.31</ele>
        <time>2019-05-27T11:30:21Z</time>
      </trkpt>
      <trkpt lat="49.62795" lon="4.96281">
        <ele>181.35</ele>
        <time>2019-05-27T11:30:39Z</time>
      </trkpt>
      <trkpt lat="49.62784" lon="4.96272">
        <ele>179.42</ele>
        <time>2019-05-27T11:30:52Z</time>
      </trkpt>
      <trkpt lat="49.62762" lon="4.96255">
        <ele>179.9</ele>
        <time>2019-05-27T11:31:12Z</time>
      </trkpt>
      <trkpt lat="49.62743" lon="4.9624">
        <ele>180.38</ele>
        <time>2019-05-27T11:31:31Z</time>
      </trkpt>
      <trkpt lat="49.6272" lon="4.96225">
        <ele>180.87</ele>
        <time>2019-05-27T11:31:52Z</time>
      </trkpt>
      <trkpt lat="49.62699" lon="4.96212">
        <ele>180.38</ele>
        <time>2019-05-27T11:32:13Z</time>
      </trkpt>
      <trkpt lat="49.62683" lon="4.96182">
        <ele>179.9</ele>
        <time>2019-05-27T11:32:35Z</time>
      </trkpt>
      <trkpt lat="49.62672" lon="4.9616">
        <ele>178.46</ele>
        <time>2019-05-27T11:32:53Z</time>
      </trkpt>
      <trkpt lat="49.62661" lon="4.96144">
        <ele>178.46</ele>
        <time>2019-05-27T11:33:07Z</time>
      </trkpt>
      <trkpt lat="49.62651" lon="4.96132">
        <ele>177.98</ele>
        <time>2019-05-27T11:33:23Z</time>
      </trkpt>
      <trkpt lat="49.6264" lon="4.96117">
        <ele>177.98</ele>
        <time>2019-05-27T11:33:39Z</time>
      </trkpt>
      <trkpt lat="49.62637" lon="4.96111">
        <ele>180.38</ele>
        <time>2019-05-27T11:33:55Z</time>
      </trkpt>
      <trkpt lat="49.62637" lon="4.96109">
        <ele>182.31</ele>
        <time>2019-05-27T11:34:18Z</time>
      </trkpt>
      <trkpt lat="49.62636" lon="4.9611">
        <ele>183.27</ele>
        <time>2019-05-27T11:34:41Z</time>
      </trkpt>
      <trkpt lat="49.62636" lon="4.96109">
        <ele>183.75</ele>
        <time>2019-05-27T11:35:02Z</time>
      </trkpt>
      <trkpt lat="49.62633" lon="4.96106">
        <ele>184.23</ele>
        <time>2019-05-27T11:35:21Z</time>
      </trkpt>
      <trkpt lat="49.62616" lon="4.96092">
        <ele>185.19</ele>
        <time>2019-05-27T11:35:39Z</time>
      </trkpt>
      <trkpt lat="49.62592" lon="4.96091">
        <ele>191.92</ele>
        <time>2019-05-27T11:35:58Z</time>
      </trkpt>
      <trkpt lat="49.62575" lon="4.96093">
        <ele>192.88</ele>
        <time>2019-05-27T11:36:13Z</time>
      </trkpt>
      <trkpt lat="49.62559" lon="4.96099">
        <ele>189.52</ele>
        <time>2019-05-27T11:36:30Z</time>
      </trkpt>
      <trkpt lat="49.62546" lon="4.961">
        <ele>186.63</ele>
        <time>2019-05-27T11:36:43Z</time>
      </trkpt>
      <trkpt lat="49.62532" lon="4.96104">
        <ele>185.67</ele>
        <time>2019-05-27T11:36:56Z</time>
      </trkpt>
      <trkpt lat="49.62513" lon="4.96104">
        <ele>185.19</ele>
        <time>2019-05-27T11:37:13Z</time>
      </trkpt>
      <trkpt lat="49.62495" lon="4.96102">
        <ele>184.23</ele>
        <time>2019-05-27T11:37:29Z</time>
      </trkpt>
      <trkpt lat="49.62478" lon="4.96096">
        <ele>184.71</ele>
        <time>2019-05-27T11:37:44Z</time>
      </trkpt>
      <trkpt lat="49.62459" lon="4.96087">
        <ele>183.27</ele>
        <time>2019-05-27T11:38:02Z</time>
      </trkpt>
      <trkpt lat="49.62443" lon="4.96081">
        <ele>182.31</ele>
        <time>2019-05-27T11:38:17Z</time>
      </trkpt>
      <trkpt lat="49.62426" lon="4.96073">
        <ele>182.79</ele>
        <time>2019-05-27T11:38:33Z</time>
      </trkpt>
      <trkpt lat="49.62409" lon="4.96061">
        <ele>183.27</ele>
        <time>2019-05-27T11:38:49Z</time>
      </trkpt>
      <trkpt lat="49.62401" lon="4.96057">
        <ele>183.75</ele>
        <time>2019-05-27T11:38:57Z</time>
      </trkpt>
      <trkpt lat="49.62387" lon="4.96031">
        <ele>186.15</ele>
        <time>2019-05-27T11:39:16Z</time>
      </trkpt>
      <trkpt lat="49.62379" lon="4.96">
        <ele>186.63</ele>
        <time>2019-05-27T11:39:36Z</time>
      </trkpt>
      <trkpt lat="49.62373" lon="4.95966">
        <ele>184.23</ele>
        <time>2019-05-27T11:39:56Z</time>
      </trkpt>
      <trkpt lat="49.62365" lon="4.95936">
        <ele>183.27</ele>
        <time>2019-05-27T11:40:16Z</time>
      </trkpt>
      <trkpt lat="49.62362" lon="4.95908">
        <ele>179.9</ele>
        <time>2019-05-27T11:40:34Z</time>
      </trkpt>
      <trkpt lat="49.6236" lon="4.95901">
        <ele>178.46</ele>
        <time>2019-05-27T11:40:39Z</time>
      </trkpt>
      <trkpt lat="49.62358" lon="4.95898">
        <ele>178.46</ele>
        <time>2019-05-27T11:40:42Z</time>
      </trkpt>
      <trkpt lat="49.6235" lon="4.95878">
        <ele>179.9</ele>
        <time>2019-05-27T11:40:55Z</time>
      </trkpt>
      <trkpt lat="49.62333" lon="4.9588">
        <ele>179.9</ele>
        <time>2019-05-27T11:41:09Z</time>
      </trkpt>
      <trkpt lat="49.62318" lon="4.95887">
        <ele>181.35</ele>
        <time>2019-05-27T11:41:24Z</time>
      </trkpt>
      <trkpt lat="49.62295" lon="4.959">
        <ele>180.87</ele>
        <time>2019-05-27T11:41:44Z</time>
      </trkpt>
      <trkpt lat="49.62278" lon="4.95917">
        <ele>178.94</ele>
        <time>2019-05-27T11:42:02Z</time>
      </trkpt>
      <trkpt lat="49.62263" lon="4.95934">
        <ele>177.98</ele>
        <time>2019-05-27T11:42:19Z</time>
      </trkpt>
      <trkpt lat="49.62249" lon="4.95951">
        <ele>179.42</ele>
        <time>2019-05-27T11:42:36Z</time>
      </trkpt>
      <trkpt lat="49.62236" lon="4.9597">
        <ele>179.42</ele>
        <time>2019-05-27T11:42:52Z</time>
      </trkpt>
      <trkpt lat="49.62222" lon="4.95993">
        <ele>179.9</ele>
        <time>2019-05-27T11:43:11Z</time>
      </trkpt>
      <trkpt lat="49.62215" lon="4.96011">
        <ele>177.02</ele>
        <time>2019-05-27T11:43:24Z</time>
      </trkpt>
      <trkpt lat="49.62196" lon="4.96014">
        <ele>173.66</ele>
        <time>2019-05-27T11:43:41Z</time>
      </trkpt>
      <trkpt lat="49.62187" lon="4.96013">
        <ele>171.25</ele>
        <time>2019-05-27T11:43:49Z</time>
      </trkpt>
      <trkpt lat="49.62168" lon="4.96016">
        <ele>168.85</ele>
        <time>2019-05-27T11:44:06Z</time>
      </trkpt>
      <trkpt lat="49.62151" lon="4.96016">
        <ele>169.33</ele>
        <time>2019-05-27T11:44:21Z</time>
      </trkpt>
      <trkpt lat="49.62131" lon="4.96022">
        <ele>172.69</ele>
        <time>2019-05-27T11:44:38Z</time>
      </trkpt>
      <trkpt lat="49.62109" lon="4.96032">
        <ele>174.14</ele>
        <time>2019-05-27T11:44:57Z</time>
      </trkpt>
      <trkpt lat="49.62085" lon="4.9604">
        <ele>176.06</ele>
        <time>2019-05-27T11:45:17Z</time>
      </trkpt>
      <trkpt lat="49.62063" lon="4.96043">
        <ele>180.38</ele>
        <time>2019-05-27T11:45:35Z</time>
      </trkpt>
      <trkpt lat="49.6204" lon="4.96046">
        <ele>182.79</ele>
        <time>2019-05-27T11:45:54Z</time>
      </trkpt>
      <trkpt lat="49.62019" lon="4.96048">
        <ele>185.19</ele>
        <time>2019-05-27T11:46:12Z</time>
      </trkpt>
      <trkpt lat="49.62001" lon="4.96048">
        <ele>186.63</ele>
        <time>2019-05-27T11:46:28Z</time>
      </trkpt>
      <trkpt lat="49.61981" lon="4.96047">
        <ele>186.63</ele>
        <time>2019-05-27T11:46:46Z</time>
      </trkpt>
      <trkpt lat="49.61957" lon="4.96046">
        <ele>188.08</ele>
        <time>2019-05-27T11:47:05Z</time>
      </trkpt>
      <trkpt lat="49.61939" lon="4.96042">
        <ele>191.92</ele>
        <time>2019-05-27T11:47:21Z</time>
      </trkpt>
      <trkpt lat="49.6192" lon="4.9604">
        <ele>192.88</ele>
        <time>2019-05-27T11:47:38Z</time>
      </trkpt>
      <trkpt lat="49.61903" lon="4.96037">
        <ele>187.59</ele>
        <time>2019-05-27T11:47:55Z</time>
      </trkpt>
      <trkpt lat="49.61887" lon="4.96033">
        <ele>187.59</ele>
        <time>2019-05-27T11:48:10Z</time>
      </trkpt>
      <trkpt lat="49.61864" lon="4.96031">
        <ele>187.11</ele>
        <time>2019-05-27T11:48:29Z</time>
      </trkpt>
      <trkpt lat="49.61847" lon="4.96028">
        <ele>187.11</ele>
        <time>2019-05-27T11:48:44Z</time>
      </trkpt>
      <trkpt lat="49.61832" lon="4.96025">
        <ele>187.11</ele>
        <time>2019-05-27T11:48:56Z</time>
      </trkpt>
      <trkpt lat="49.61812" lon="4.96017">
        <ele>186.63</ele>
        <time>2019-05-27T11:49:15Z</time>
      </trkpt>
      <trkpt lat="49.61811" lon="4.96016">
        <ele>186.63</ele>
        <time>2019-05-27T11:49:16Z</time>
      </trkpt>
      <trkpt lat="49.61794" lon="4.96009">
        <ele>187.11</ele>
        <time>2019-05-27T11:49:31Z</time>
      </trkpt>
      <trkpt lat="49.61777" lon="4.96002">
        <ele>190</ele>
        <time>2019-05-27T11:49:46Z</time>
      </trkpt>
      <trkpt lat="49.6176" lon="4.95996">
        <ele>192.88</ele>
        <time>2019-05-27T11:50:02Z</time>
      </trkpt>
      <trkpt lat="49.61749" lon="4.95991">
        <ele>192.88</ele>
        <time>2019-05-27T11:50:12Z</time>
      </trkpt>
      <trkpt lat="49.61733" lon="4.95987">
        <ele>191.92</ele>
        <time>2019-05-27T11:50:26Z</time>
      </trkpt>
      <trkpt lat="49.61714" lon="4.95979">
        <ele>193.36</ele>
        <time>2019-05-27T11:50:42Z</time>
      </trkpt>
      <trkpt lat="49.617" lon="4.95965">
        <ele>193.84</ele>
        <time>2019-05-27T11:50:58Z</time>
      </trkpt>
      <trkpt lat="49.61684" lon="4.95951">
        <ele>193.84</ele>
        <time>2019-05-27T11:51:14Z</time>
      </trkpt>
      <trkpt lat="49.61672" lon="4.95938">
        <ele>192.4</ele>
        <time>2019-05-27T11:51:28Z</time>
      </trkpt>
      <trkpt lat="49.61652" lon="4.95926">
        <ele>193.84</ele>
        <time>2019-05-27T11:51:44Z</time>
      </trkpt>
      <trkpt lat="49.61633" lon="4.95914">
        <ele>196.25</ele>
        <time>2019-05-27T11:52:01Z</time>
      </trkpt>
      <trkpt lat="49.61624" lon="4.9591">
        <ele>195.28</ele>
        <time>2019-05-27T11:52:08Z</time>
      </trkpt>
      <trkpt lat="49.61612" lon="4.95901">
        <ele>194.8</ele>
        <time>2019-05-27T11:52:20Z</time>
      </trkpt>
      <trkpt lat="49.61609" lon="4.95898">
        <ele>193.84</ele>
        <time>2019-05-27T11:52:23Z</time>
      </trkpt>
      <trkpt lat="49.61604" lon="4.95895">
        <ele>193.36</ele>
        <time>2019-05-27T11:52:27Z</time>
      </trkpt>
      <trkpt lat="49.61585" lon="4.95885">
        <ele>198.17</ele>
        <time>2019-05-27T11:52:42Z</time>
      </trkpt>
      <trkpt lat="49.61569" lon="4.95874">
        <ele>199.61</ele>
        <time>2019-05-27T11:52:57Z</time>
      </trkpt>
      <trkpt lat="49.61555" lon="4.95868">
        <ele>199.13</ele>
        <time>2019-05-27T11:53:10Z</time>
      </trkpt>
      <trkpt lat="49.61537" lon="4.95857">
        <ele>198.17</ele>
        <time>2019-05-27T11:53:26Z</time>
      </trkpt>
      <trkpt lat="49.61533" lon="4.95854">
        <ele>197.69</ele>
        <time>2019-05-27T11:53:30Z</time>
      </trkpt>
      <trkpt lat="49.61518" lon="4.95849">
        <ele>197.21</ele>
        <time>2019-05-27T11:53:45Z</time>
      </trkpt>
      <trkpt lat="49.61502" lon="4.95839">
        <ele>194.8</ele>
        <time>2019-05-27T11:53:58Z</time>
      </trkpt>
      <trkpt lat="49.61484" lon="4.95824">
        <ele>193.36</ele>
        <time>2019-05-27T11:54:16Z</time>
      </trkpt>
      <trkpt lat="49.61469" lon="4.95813">
        <ele>192.88</ele>
        <time>2019-05-27T11:54:30Z</time>
      </trkpt>
      <trkpt lat="49.61461" lon="4.95808">
        <ele>192.4</ele>
        <time>2019-05-27T11:54:38Z</time>
      </trkpt>
      <trkpt lat="49.61437" lon="4.95788">
        <ele>193.36</ele>
        <time>2019-05-27T11:55:01Z</time>
      </trkpt>
      <trkpt lat="49.61419" lon="4.95772">
        <ele>195.77</ele>
        <time>2019-05-27T11:55:19Z</time>
      </trkpt>
      <trkpt lat="49.61402" lon="4.9576">
        <ele>197.69</ele>
        <time>2019-05-27T11:55:36Z</time>
      </trkpt>
      <trkpt lat="49.61387" lon="4.9574">
        <ele>192.88</ele>
        <time>2019-05-27T11:55:54Z</time>
      </trkpt>
      <trkpt lat="49.6138" lon="4.95726">
        <ele>187.59</ele>
        <time>2019-05-27T11:56:05Z</time>
      </trkpt>
      <trkpt lat="49.61376" lon="4.95721">
        <ele>187.11</ele>
        <time>2019-05-27T11:56:09Z</time>
      </trkpt>
      <trkpt lat="49.61372" lon="4.95717">
        <ele>186.63</ele>
        <time>2019-05-27T11:56:13Z</time>
      </trkpt>
      <trkpt lat="49.61361" lon="4.95697">
        <ele>183.75</ele>
        <time>2019-05-27T11:56:29Z</time>
      </trkpt>
      <trkpt lat="49.61352" lon="4.95677">
        <ele>180.87</ele>
        <time>2019-05-27T11:56:44Z</time>
      </trkpt>
      <trkpt lat="49.61347" lon="4.95661">
        <ele>178.94</ele>
        <time>2019-05-27T11:56:55Z</time>
      </trkpt>
      <trkpt lat="49.61339" lon="4.95637">
        <ele>178.46</ele>
        <time>2019-05-27T11:57:08Z</time>
      </trkpt>
      <trkpt lat="49.61338" lon="4.95634">
        <ele>178.94</ele>
        <time>2019-05-27T11:57:09Z</time>
      </trkpt>
      <trkpt lat="49.61326" lon="4.95616">
        <ele>179.9</ele>
        <time>2019-05-27T11:57:21Z</time>
      </trkpt>
      <trkpt lat="49.61305" lon="4.95602">
        <ele>189.52</ele>
        <time>2019-05-27T11:57:38Z</time>
      </trkpt>
      <trkpt lat="49.61287" lon="4.9559">
        <ele>192.4</ele>
        <time>2019-05-27T11:57:53Z</time>
      </trkpt>
      <trkpt lat="49.61269" lon="4.95579">
        <ele>200.57</ele>
        <time>2019-05-27T11:58:10Z</time>
      </trkpt>
      <trkpt lat="49.61247" lon="4.95566">
        <ele>203.46</ele>
        <time>2019-05-27T11:58:27Z</time>
      </trkpt>
      <trkpt lat="49.61239" lon="4.95563">
        <ele>206.82</ele>
        <time>2019-05-27T11:58:34Z</time>
      </trkpt>
      <trkpt lat="49.61221" lon="4.95559">
        <ele>206.82</ele>
        <time>2019-05-27T11:58:50Z</time>
      </trkpt>
      <trkpt lat="49.61208" lon="4.95552">
        <ele>205.86</ele>
        <time>2019-05-27T11:59:05Z</time>
      </trkpt>
      <trkpt lat="49.61189" lon="4.95546">
        <ele>204.42</ele>
        <time>2019-05-27T11:59:22Z</time>
      </trkpt>
      <trkpt lat="49.6117" lon="4.95538">
        <ele>203.46</ele>
        <time>2019-05-27T11:59:40Z</time>
      </trkpt>
      <trkpt lat="49.61147" lon="4.95529">
        <ele>200.09</ele>
        <time>2019-05-27T12:00:00Z</time>
      </trkpt>
      <trkpt lat="49.61129" lon="4.95523">
        <ele>197.69</ele>
        <time>2019-05-27T12:00:15Z</time>
      </trkpt>
      <trkpt lat="49.61111" lon="4.9552">
        <ele>197.21</ele>
        <time>2019-05-27T12:00:30Z</time>
      </trkpt>
      <trkpt lat="49.61096" lon="4.95522">
        <ele>195.77</ele>
        <time>2019-05-27T12:00:45Z</time>
      </trkpt>
      <trkpt lat="49.61081" lon="4.95535">
        <ele>188.56</ele>
        <time>2019-05-27T12:01:03Z</time>
      </trkpt>
      <trkpt lat="49.61074" lon="4.95542">
        <ele>186.63</ele>
        <time>2019-05-27T12:01:12Z</time>
      </trkpt>
      <trkpt lat="49.61049" lon="4.95539">
        <ele>189.52</ele>
        <time>2019-05-27T12:01:29Z</time>
      </trkpt>
      <trkpt lat="49.61031" lon="4.95533">
        <ele>187.11</ele>
        <time>2019-05-27T12:01:45Z</time>
      </trkpt>
      <trkpt lat="49.61018" lon="4.95522">
        <ele>192.4</ele>
        <time>2019-05-27T12:02:00Z</time>
      </trkpt>
      <trkpt lat="49.61001" lon="4.95512">
        <ele>197.69</ele>
        <time>2019-05-27T12:02:17Z</time>
      </trkpt>
      <trkpt lat="49.60981" lon="4.95499">
        <ele>201.53</ele>
        <time>2019-05-27T12:02:35Z</time>
      </trkpt>
      <trkpt lat="49.60966" lon="4.95492">
        <ele>200.09</ele>
        <time>2019-05-27T12:02:50Z</time>
      </trkpt>
      <trkpt lat="49.60948" lon="4.95482">
        <ele>199.61</ele>
        <time>2019-05-27T12:03:07Z</time>
      </trkpt>
      <trkpt lat="49.60926" lon="4.95469">
        <ele>203.46</ele>
        <time>2019-05-27T12:03:27Z</time>
      </trkpt>
      <trkpt lat="49.6091" lon="4.95463">
        <ele>200.57</ele>
        <time>2019-05-27T12:03:41Z</time>
      </trkpt>
      <trkpt lat="49.60893" lon="4.95457">
        <ele>199.13</ele>
        <time>2019-05-27T12:03:57Z</time>
      </trkpt>
      <trkpt lat="49.6088" lon="4.95451">
        <ele>201.05</ele>
        <time>2019-05-27T12:04:10Z</time>
      </trkpt>
      <trkpt lat="49.60863" lon="4.95449">
        <ele>197.69</ele>
        <time>2019-05-27T12:04:26Z</time>
      </trkpt>
      <trkpt lat="49.6086" lon="4.95448">
        <ele>198.17</ele>
        <time>2019-05-27T12:04:29Z</time>
      </trkpt>
      <trkpt lat="49.60845" lon="4.95437">
        <ele>194.8</ele>
        <time>2019-05-27T12:04:47Z</time>
      </trkpt>
      <trkpt lat="49.60831" lon="4.95426">
        <ele>194.32</ele>
        <time>2019-05-27T12:05:02Z</time>
      </trkpt>
      <trkpt lat="49.60807" lon="4.95415">
        <ele>193.84</ele>
        <time>2019-05-27T12:05:23Z</time>
      </trkpt>
      <trkpt lat="49.60786" lon="4.95409">
        <ele>189.04</ele>
        <time>2019-05-27T12:05:42Z</time>
      </trkpt>
      <trkpt lat="49.60767" lon="4.95407">
        <ele>187.59</ele>
        <time>2019-05-27T12:06:00Z</time>
      </trkpt>
      <trkpt lat="49.60751" lon="4.95408">
        <ele>188.08</ele>
        <time>2019-05-27T12:06:13Z</time>
      </trkpt>
      <trkpt lat="49.60731" lon="4.95409">
        <ele>187.59</ele>
        <time>2019-05-27T12:06:30Z</time>
      </trkpt>
      <trkpt lat="49.60712" lon="4.95413">
        <ele>186.63</ele>
        <time>2019-05-27T12:06:47Z</time>
      </trkpt>
      <trkpt lat="49.60693" lon="4.95417">
        <ele>188.56</ele>
        <time>2019-05-27T12:07:03Z</time>
      </trkpt>
      <trkpt lat="49.60673" lon="4.95423">
        <ele>190.48</ele>
        <time>2019-05-27T12:07:21Z</time>
      </trkpt>
      <trkpt lat="49.60652" lon="4.95426">
        <ele>192.4</ele>
        <time>2019-05-27T12:07:38Z</time>
      </trkpt>
      <trkpt lat="49.60641" lon="4.95429">
        <ele>193.84</ele>
        <time>2019-05-27T12:07:48Z</time>
      </trkpt>
      <trkpt lat="49.60636" lon="4.95431">
        <ele>194.8</ele>
        <time>2019-05-27T12:07:53Z</time>
      </trkpt>
      <trkpt lat="49.60618" lon="4.95435">
        <ele>193.84</ele>
        <time>2019-05-27T12:08:09Z</time>
      </trkpt>
      <trkpt lat="49.60603" lon="4.9544">
        <ele>193.84</ele>
        <time>2019-05-27T12:08:24Z</time>
      </trkpt>
      <trkpt lat="49.60585" lon="4.95441">
        <ele>191.92</ele>
        <time>2019-05-27T12:08:40Z</time>
      </trkpt>
      <trkpt lat="49.60583" lon="4.95439">
        <ele>192.4</ele>
        <time>2019-05-27T12:08:54Z</time>
      </trkpt>
      <trkpt lat="49.60573" lon="4.95442">
        <ele>192.88</ele>
        <time>2019-05-27T12:09:10Z</time>
      </trkpt>
      <trkpt lat="49.60553" lon="4.95449">
        <ele>193.36</ele>
        <time>2019-05-27T12:09:28Z</time>
      </trkpt>
      <trkpt lat="49.60535" lon="4.95455">
        <ele>192.88</ele>
        <time>2019-05-27T12:09:45Z</time>
      </trkpt>
      <trkpt lat="49.60517" lon="4.95474">
        <ele>197.21</ele>
        <time>2019-05-27T12:10:03Z</time>
      </trkpt>
      <trkpt lat="49.60496" lon="4.9549">
        <ele>198.65</ele>
        <time>2019-05-27T12:10:23Z</time>
      </trkpt>
      <trkpt lat="49.60476" lon="4.95502">
        <ele>198.17</ele>
        <time>2019-05-27T12:10:40Z</time>
      </trkpt>
      <trkpt lat="49.60454" lon="4.95515">
        <ele>195.77</ele>
        <time>2019-05-27T12:11:02Z</time>
      </trkpt>
      <trkpt lat="49.60438" lon="4.95524">
        <ele>193.36</ele>
        <time>2019-05-27T12:11:18Z</time>
      </trkpt>
      <trkpt lat="49.60421" lon="4.95533">
        <ele>190.96</ele>
        <time>2019-05-27T12:11:34Z</time>
      </trkpt>
      <trkpt lat="49.60406" lon="4.95537">
        <ele>186.63</ele>
        <time>2019-05-27T12:11:48Z</time>
      </trkpt>
      <trkpt lat="49.60386" lon="4.95541">
        <ele>183.27</ele>
        <time>2019-05-27T12:12:05Z</time>
      </trkpt>
      <trkpt lat="49.60367" lon="4.95543">
        <ele>184.71</ele>
        <time>2019-05-27T12:12:20Z</time>
      </trkpt>
      <trkpt lat="49.60347" lon="4.95535">
        <ele>186.15</ele>
        <time>2019-05-27T12:12:40Z</time>
      </trkpt>
      <trkpt lat="49.60333" lon="4.9553">
        <ele>183.75</ele>
        <time>2019-05-27T12:12:55Z</time>
      </trkpt>
      <trkpt lat="49.60314" lon="4.95532">
        <ele>181.35</ele>
        <time>2019-05-27T12:13:12Z</time>
      </trkpt>
      <trkpt lat="49.60292" lon="4.95543">
        <ele>186.63</ele>
        <time>2019-05-27T12:13:31Z</time>
      </trkpt>
      <trkpt lat="49.60287" lon="4.95546">
        <ele>186.63</ele>
        <time>2019-05-27T12:13:36Z</time>
      </trkpt>
      <trkpt lat="49.60268" lon="4.95532">
        <ele>192.88</ele>
        <time>2019-05-27T12:13:52Z</time>
      </trkpt>
      <trkpt lat="49.60251" lon="4.95517">
        <ele>197.69</ele>
        <time>2019-05-27T12:14:09Z</time>
      </trkpt>
      <trkpt lat="49.6023" lon="4.95509">
        <ele>199.61</ele>
        <time>2019-05-27T12:14:27Z</time>
      </trkpt>
      <trkpt lat="49.60209" lon="4.95512">
        <ele>199.61</ele>
        <time>2019-05-27T12:14:45Z</time>
      </trkpt>
      <trkpt lat="49.6019" lon="4.95516">
        <ele>200.09</ele>
        <time>2019-05-27T12:15:02Z</time>
      </trkpt>
      <trkpt lat="49.60179" lon="4.95505">
        <ele>202.49</ele>
        <time>2019-05-27T12:15:17Z</time>
      </trkpt>
      <trkpt lat="49.60179" lon="4.95502">
        <ele>201.53</ele>
        <time>2019-05-27T12:15:24Z</time>
      </trkpt>
      <trkpt lat="49.60178" lon="4.955">
        <ele>198.17</ele>
        <time>2019-05-27T12:15:29Z</time>
      </trkpt>
      <trkpt lat="49.60171" lon="4.95477">
        <ele>192.4</ele>
        <time>2019-05-27T12:15:45Z</time>
      </trkpt>
      <trkpt lat="49.60171" lon="4.9547">
        <ele>191.44</ele>
        <time>2019-05-27T12:15:50Z</time>
      </trkpt>
      <trkpt lat="49.60169" lon="4.95447">
        <ele>194.8</ele>
        <time>2019-05-27T12:16:04Z</time>
      </trkpt>
      <trkpt lat="49.60165" lon="4.95426">
        <ele>199.61</ele>
        <time>2019-05-27T12:16:17Z</time>
      </trkpt>
      <trkpt lat="49.60162" lon="4.95405">
        <ele>200.57</ele>
        <time>2019-05-27T12:16:32Z</time>
      </trkpt>
      <trkpt lat="49.6016" lon="4.95388">
        <ele>202.01</ele>
        <time>2019-05-27T12:16:46Z</time>
      </trkpt>
      <trkpt lat="49.60158" lon="4.95368">
        <ele>205.86</ele>
        <time>2019-05-27T12:17:00Z</time>
      </trkpt>
      <trkpt lat="49.6016" lon="4.95343">
        <ele>210.19</ele>
        <time>2019-05-27T12:17:15Z</time>
      </trkpt>
      <trkpt lat="49.60159" lon="4.95331">
        <ele>213.55</ele>
        <time>2019-05-27T12:17:29Z</time>
      </trkpt>
      <trkpt lat="49.6016" lon="4.9533">
        <ele>214.99</ele>
        <time>2019-05-27T12:17:48Z</time>
      </trkpt>
      <trkpt lat="49.60163" lon="4.95304">
        <ele>214.99</ele>
        <time>2019-05-27T12:18:06Z</time>
      </trkpt>
      <trkpt lat="49.60164" lon="4.95283">
        <ele>216.43</ele>
        <time>2019-05-27T12:18:21Z</time>
      </trkpt>
      <trkpt lat="49.60166" lon="4.95261">
        <ele>218.84</ele>
        <time>2019-05-27T12:18:36Z</time>
      </trkpt>
      <trkpt lat="49.60167" lon="4.95236">
        <ele>220.76</ele>
        <time>2019-05-27T12:18:52Z</time>
      </trkpt>
      <trkpt lat="49.60167" lon="4.95213">
        <ele>223.16</ele>
        <time>2019-05-27T12:19:08Z</time>
      </trkpt>
      <trkpt lat="49.60166" lon="4.95189">
        <ele>224.61</ele>
        <time>2019-05-27T12:19:26Z</time>
      </trkpt>
      <trkpt lat="49.60166" lon="4.95186">
        <ele>224.61</ele>
        <time>2019-05-27T12:19:28Z</time>
      </trkpt>
      <trkpt lat="49.6017" lon="4.95158">
        <ele>229.41</ele>
        <time>2019-05-27T12:19:45Z</time>
      </trkpt>
      <trkpt lat="49.60172" lon="4.95137">
        <ele>229.89</ele>
        <time>2019-05-27T12:20:00Z</time>
      </trkpt>
      <trkpt lat="49.60174" lon="4.95118">
        <ele>230.37</ele>
        <time>2019-05-27T12:20:12Z</time>
      </trkpt>
      <trkpt lat="49.60177" lon="4.95092">
        <ele>231.81</ele>
        <time>2019-05-27T12:20:28Z</time>
      </trkpt>
      <trkpt lat="49.60179" lon="4.95071">
        <ele>233.26</ele>
        <time>2019-05-27T12:20:42Z</time>
      </trkpt>
      <trkpt lat="49.6018" lon="4.95048">
        <ele>235.66</ele>
        <time>2019-05-27T12:20:58Z</time>
      </trkpt>
      <trkpt lat="49.6018" lon="4.95031">
        <ele>237.58</ele>
        <time>2019-05-27T12:21:12Z</time>
      </trkpt>
      <trkpt lat="49.60179" lon="4.95011">
        <ele>239.99</ele>
        <time>2019-05-27T12:21:27Z</time>
      </trkpt>
      <trkpt lat="49.60179" lon="4.94991">
        <ele>243.35</ele>
        <time>2019-05-27T12:21:43Z</time>
      </trkpt>
      <trkpt lat="49.60179" lon="4.94974">
        <ele>246.23</ele>
        <time>2019-05-27T12:21:57Z</time>
      </trkpt>
      <trkpt lat="49.6018" lon="4.94945">
        <ele>247.2</ele>
        <time>2019-05-27T12:22:12Z</time>
      </trkpt>
      <trkpt lat="49.60183" lon="4.94921">
        <ele>249.12</ele>
        <time>2019-05-27T12:22:25Z</time>
      </trkpt>
      <trkpt lat="49.60188" lon="4.94898">
        <ele>248.16</ele>
        <time>2019-05-27T12:22:40Z</time>
      </trkpt>
      <trkpt lat="49.60192" lon="4.94882">
        <ele>249.6</ele>
        <time>2019-05-27T12:22:53Z</time>
      </trkpt>
      <trkpt lat="49.60195" lon="4.94872">
        <ele>249.12</ele>
        <time>2019-05-27T12:23:07Z</time>
      </trkpt>
      <trkpt lat="49.60197" lon="4.94855">
        <ele>249.6</ele>
        <time>2019-05-27T12:23:21Z</time>
      </trkpt>
      <trkpt lat="49.60198" lon="4.94839">
        <ele>250.56</ele>
        <time>2019-05-27T12:23:35Z</time>
      </trkpt>
      <trkpt lat="49.602" lon="4.94817">
        <ele>249.12</ele>
        <time>2019-05-27T12:23:49Z</time>
      </trkpt>
      <trkpt lat="49.60201" lon="4.94805">
        <ele>251.04</ele>
        <time>2019-05-27T12:24:01Z</time>
      </trkpt>
      <trkpt lat="49.60203" lon="4.94794">
        <ele>252</ele>
        <time>2019-05-27T12:24:14Z</time>
      </trkpt>
      <trkpt lat="49.60205" lon="4.94775">
        <ele>252</ele>
        <time>2019-05-27T12:24:25Z</time>
      </trkpt>
      <trkpt lat="49.60205" lon="4.94767">
        <ele>252.96</ele>
        <time>2019-05-27T12:24:29Z</time>
      </trkpt>
      <trkpt lat="49.60205" lon="4.94759">
        <ele>253.93</ele>
        <time>2019-05-27T12:24:32Z</time>
      </trkpt>
      <trkpt lat="49.60204" lon="4.94724">
        <ele>261.14</ele>
        <time>2019-05-27T12:24:47Z</time>
      </trkpt>
      <trkpt lat="49.602" lon="4.947">
        <ele>266.9</ele>
        <time>2019-05-27T12:25:02Z</time>
      </trkpt>
      <trkpt lat="49.60195" lon="4.94694">
        <ele>270.27</ele>
        <time>2019-05-27T12:25:16Z</time>
      </trkpt>
      <trkpt lat="49.60195" lon="4.94701">
        <ele>273.15</ele>
        <time>2019-05-27T12:25:30Z</time>
      </trkpt>
      <trkpt lat="49.60192" lon="4.94715">
        <ele>272.19</ele>
        <time>2019-05-27T12:25:42Z</time>
      </trkpt>
      <trkpt lat="49.60191" lon="4.94719">
        <ele>271.23</ele>
        <time>2019-05-27T12:25:45Z</time>
      </trkpt>
      <trkpt lat="49.6019" lon="4.94724">
        <ele>270.75</ele>
        <time>2019-05-27T12:25:48Z</time>
      </trkpt>
      <trkpt lat="49.60183" lon="4.94746">
        <ele>266.9</ele>
        <time>2019-05-27T12:26:04Z</time>
      </trkpt>
      <trkpt lat="49.60177" lon="4.94776">
        <ele>264.02</ele>
        <time>2019-05-27T12:26:23Z</time>
      </trkpt>
      <trkpt lat="49.60173" lon="4.948">
        <ele>260.17</ele>
        <time>2019-05-27T12:26:39Z</time>
      </trkpt>
      <trkpt lat="49.60172" lon="4.94807">
        <ele>259.21</ele>
        <time>2019-05-27T12:26:43Z</time>
      </trkpt>
      <trkpt lat="49.60165" lon="4.94835">
        <ele>257.77</ele>
        <time>2019-05-27T12:27:01Z</time>
      </trkpt>
      <trkpt lat="49.60161" lon="4.94861">
        <ele>255.37</ele>
        <time>2019-05-27T12:27:17Z</time>
      </trkpt>
      <trkpt lat="49.60153" lon="4.94897">
        <ele>256.33</ele>
        <time>2019-05-27T12:27:35Z</time>
      </trkpt>
      <trkpt lat="49.6015" lon="4.9492">
        <ele>255.37</ele>
        <time>2019-05-27T12:27:50Z</time>
      </trkpt>
      <trkpt lat="49.60145" lon="4.94944">
        <ele>254.89</ele>
        <time>2019-05-27T12:28:04Z</time>
      </trkpt>
      <trkpt lat="49.60141" lon="4.94967">
        <ele>253.93</ele>
        <time>2019-05-27T12:28:19Z</time>
      </trkpt>
      <trkpt lat="49.60135" lon="4.94999">
        <ele>254.41</ele>
        <time>2019-05-27T12:28:36Z</time>
      </trkpt>
      <trkpt lat="49.60131" lon="4.95024">
        <ele>249.12</ele>
        <time>2019-05-27T12:28:54Z</time>
      </trkpt>
      <trkpt lat="49.60127" lon="4.9504">
        <ele>243.35</ele>
        <time>2019-05-27T12:29:07Z</time>
      </trkpt>
      <trkpt lat="49.60122" lon="4.95068">
        <ele>234.7</ele>
        <time>2019-05-27T12:29:25Z</time>
      </trkpt>
      <trkpt lat="49.60117" lon="4.95089">
        <ele>228.45</ele>
        <time>2019-05-27T12:29:38Z</time>
      </trkpt>
      <trkpt lat="49.60109" lon="4.95115">
        <ele>228.45</ele>
        <time>2019-05-27T12:29:52Z</time>
      </trkpt>
      <trkpt lat="49.60103" lon="4.95131">
        <ele>236.14</ele>
        <time>2019-05-27T12:29:59Z</time>
      </trkpt>
      <trkpt lat="49.60092" lon="4.95153">
        <ele>233.74</ele>
        <time>2019-05-27T12:30:16Z</time>
      </trkpt>
      <trkpt lat="49.6008" lon="4.95169">
        <ele>233.74</ele>
        <time>2019-05-27T12:30:33Z</time>
      </trkpt>
      <trkpt lat="49.60061" lon="4.95186">
        <ele>233.26</ele>
        <time>2019-05-27T12:30:52Z</time>
      </trkpt>
      <trkpt lat="49.60045" lon="4.95192">
        <ele>230.85</ele>
        <time>2019-05-27T12:31:08Z</time>
      </trkpt>
      <trkpt lat="49.60042" lon="4.95192">
        <ele>230.37</ele>
        <time>2019-05-27T12:31:10Z</time>
      </trkpt>
      <trkpt lat="49.60023" lon="4.95192">
        <ele>229.89</ele>
        <time>2019-05-27T12:31:26Z</time>
      </trkpt>
      <trkpt lat="49.60005" lon="4.9519">
        <ele>233.74</ele>
        <time>2019-05-27T12:31:39Z</time>
      </trkpt>
      <trkpt lat="49.59992" lon="4.95187">
        <ele>239.51</ele>
        <time>2019-05-27T12:31:52Z</time>
      </trkpt>
      <trkpt lat="49.59981" lon="4.95187">
        <ele>239.51</ele>
        <time>2019-05-27T12:32:05Z</time>
      </trkpt>
      <trkpt lat="49.59963" lon="4.95179">
        <ele>240.95</ele>
        <time>2019-05-27T12:32:19Z</time>
      </trkpt>
      <trkpt lat="49.59945" lon="4.95173">
        <ele>240.95</ele>
        <time>2019-05-27T12:32:36Z</time>
      </trkpt>
      <trkpt lat="49.59944" lon="4.95172">
        <ele>240.95</ele>
        <time>2019-05-27T12:32:37Z</time>
      </trkpt>
      <trkpt lat="49.59922" lon="4.95163">
        <ele>246.23</ele>
        <time>2019-05-27T12:32:54Z</time>
      </trkpt>
      <trkpt lat="49.59908" lon="4.95165">
        <ele>247.68</ele>
        <time>2019-05-27T12:33:08Z</time>
      </trkpt>
      <trkpt lat="49.59889" lon="4.95168">
        <ele>252</ele>
        <time>2019-05-27T12:33:25Z</time>
      </trkpt>
      <trkpt lat="49.59868" lon="4.95173">
        <ele>254.41</ele>
        <time>2019-05-27T12:33:42Z</time>
      </trkpt>
      <trkpt lat="49.59857" lon="4.95176">
        <ele>253.93</ele>
        <time>2019-05-27T12:33:51Z</time>
      </trkpt>
      <trkpt lat="49.59841" lon="4.95188">
        <ele>251.52</ele>
        <time>2019-05-27T12:34:07Z</time>
      </trkpt>
      <trkpt lat="49.59836" lon="4.9519">
        <ele>247.2</ele>
        <time>2019-05-27T12:34:26Z</time>
      </trkpt>
      <trkpt lat="49.59822" lon="4.95202">
        <ele>244.31</ele>
        <time>2019-05-27T12:34:40Z</time>
      </trkpt>
      <trkpt lat="49.59807" lon="4.95212">
        <ele>239.02</ele>
        <time>2019-05-27T12:34:55Z</time>
      </trkpt>
      <trkpt lat="49.59792" lon="4.95223">
        <ele>235.18</ele>
        <time>2019-05-27T12:35:11Z</time>
      </trkpt>
      <trkpt lat="49.59779" lon="4.95235">
        <ele>234.22</ele>
        <time>2019-05-27T12:35:26Z</time>
      </trkpt>
      <trkpt lat="49.59776" lon="4.95238">
        <ele>233.74</ele>
        <time>2019-05-27T12:35:29Z</time>
      </trkpt>
      <trkpt lat="49.59762" lon="4.9525">
        <ele>231.81</ele>
        <time>2019-05-27T12:35:45Z</time>
      </trkpt>
      <trkpt lat="49.59749" lon="4.95265">
        <ele>229.41</ele>
        <time>2019-05-27T12:36:00Z</time>
      </trkpt>
      <trkpt lat="49.59738" lon="4.95273">
        <ele>220.28</ele>
        <time>2019-05-27T12:36:16Z</time>
      </trkpt>
      <trkpt lat="49.59723" lon="4.95284">
        <ele>214.03</ele>
        <time>2019-05-27T12:36:30Z</time>
      </trkpt>
      <trkpt lat="49.59706" lon="4.95297">
        <ele>215.47</ele>
        <time>2019-05-27T12:36:46Z</time>
      </trkpt>
      <trkpt lat="49.59689" lon="4.9531">
        <ele>219.32</ele>
        <time>2019-05-27T12:37:03Z</time>
      </trkpt>
      <trkpt lat="49.59673" lon="4.95325">
        <ele>221.72</ele>
        <time>2019-05-27T12:37:20Z</time>
      </trkpt>
      <trkpt lat="49.59659" lon="4.95332">
        <ele>221.72</ele>
        <time>2019-05-27T12:37:34Z</time>
      </trkpt>
      <trkpt lat="49.59649" lon="4.9534">
        <ele>222.2</ele>
        <time>2019-05-27T12:37:44Z</time>
      </trkpt>
      <trkpt lat="49.59642" lon="4.95344">
        <ele>224.12</ele>
        <time>2019-05-27T12:37:50Z</time>
      </trkpt>
      <trkpt lat="49.5964" lon="4.95351">
        <ele>225.57</ele>
        <time>2019-05-27T12:38:03Z</time>
      </trkpt>
      <trkpt lat="49.59638" lon="4.95353">
        <ele>226.53</ele>
        <time>2019-05-27T12:38:22Z</time>
      </trkpt>
      <trkpt lat="49.59638" lon="4.95353">
        <ele>226.53</ele>
        <time>2019-05-27T12:38:45Z</time>
      </trkpt>
      <trkpt lat="49.59639" lon="4.95353">
        <ele>226.05</ele>
        <time>2019-05-27T12:39:02Z</time>
      </trkpt>
      <trkpt lat="49.59633" lon="4.95351">
        <ele>225.57</ele>
        <time>2019-05-27T12:39:12Z</time>
      </trkpt>
      <trkpt lat="49.59616" lon="4.95361">
        <ele>221.24</ele>
        <time>2019-05-27T12:39:30Z</time>
      </trkpt>
      <trkpt lat="49.59611" lon="4.95366">
        <ele>221.24</ele>
        <time>2019-05-27T12:39:35Z</time>
      </trkpt>
      <trkpt lat="49.59589" lon="4.95376">
        <ele>219.32</ele>
        <time>2019-05-27T12:39:56Z</time>
      </trkpt>
      <trkpt lat="49.59569" lon="4.95386">
        <ele>214.51</ele>
        <time>2019-05-27T12:40:16Z</time>
      </trkpt>
      <trkpt lat="49.5956" lon="4.95389">
        <ele>215.47</ele>
        <time>2019-05-27T12:40:24Z</time>
      </trkpt>
      <trkpt lat="49.59542" lon="4.95398">
        <ele>216.43</ele>
        <time>2019-05-27T12:40:43Z</time>
      </trkpt>
      <trkpt lat="49.59536" lon="4.95412">
        <ele>213.07</ele>
        <time>2019-05-27T12:40:54Z</time>
      </trkpt>
      <trkpt lat="49.59537" lon="4.95416">
        <ele>212.59</ele>
        <time>2019-05-27T12:40:57Z</time>
      </trkpt>
      <trkpt lat="49.59558" lon="4.95429">
        <ele>214.03</ele>
        <time>2019-05-27T12:41:17Z</time>
      </trkpt>
      <trkpt lat="49.59578" lon="4.9543">
        <ele>208.74</ele>
        <time>2019-05-27T12:41:36Z</time>
      </trkpt>
      <trkpt lat="49.596" lon="4.95433">
        <ele>205.86</ele>
        <time>2019-05-27T12:41:56Z</time>
      </trkpt>
      <trkpt lat="49.59622" lon="4.95441">
        <ele>200.57</ele>
        <time>2019-05-27T12:42:17Z</time>
      </trkpt>
      <trkpt lat="49.59639" lon="4.9545">
        <ele>201.05</ele>
        <time>2019-05-27T12:42:34Z</time>
      </trkpt>
      <trkpt lat="49.5966" lon="4.95447">
        <ele>200.09</ele>
        <time>2019-05-27T12:42:52Z</time>
      </trkpt>
      <trkpt lat="49.59668" lon="4.95446">
        <ele>198.65</ele>
        <time>2019-05-27T12:43:00Z</time>
      </trkpt>
      <trkpt lat="49.59683" lon="4.95448">
        <ele>194.32</ele>
        <time>2019-05-27T12:43:14Z</time>
      </trkpt>
      <trkpt lat="49.59704" lon="4.9545">
        <ele>188.08</ele>
        <time>2019-05-27T12:43:34Z</time>
      </trkpt>
      <trkpt lat="49.59726" lon="4.95452">
        <ele>188.08</ele>
        <time>2019-05-27T12:43:53Z</time>
      </trkpt>
      <trkpt lat="49.59745" lon="4.95455">
        <ele>186.63</ele>
        <time>2019-05-27T12:44:09Z</time>
      </trkpt>
      <trkpt lat="49.59763" lon="4.95458">
        <ele>189.52</ele>
        <time>2019-05-27T12:44:24Z</time>
      </trkpt>
      <trkpt lat="49.59789" lon="4.95461">
        <ele>190.48</ele>
        <time>2019-05-27T12:44:45Z</time>
      </trkpt>
      <trkpt lat="49.59809" lon="4.95465">
        <ele>188.56</ele>
        <time>2019-05-27T12:45:01Z</time>
      </trkpt>
      <trkpt lat="49.59833" lon="4.95466">
        <ele>190.48</ele>
        <time>2019-05-27T12:45:20Z</time>
      </trkpt>
      <trkpt lat="49.59853" lon="4.95472">
        <ele>189.04</ele>
        <time>2019-05-27T12:45:38Z</time>
      </trkpt>
      <trkpt lat="49.59867" lon="4.95482">
        <ele>189.52</ele>
        <time>2019-05-27T12:45:51Z</time>
      </trkpt>
      <trkpt lat="49.59884" lon="4.95502">
        <ele>189.04</ele>
        <time>2019-05-27T12:46:08Z</time>
      </trkpt>
      <trkpt lat="49.59901" lon="4.95528">
        <ele>189.52</ele>
        <time>2019-05-27T12:46:29Z</time>
      </trkpt>
      <trkpt lat="49.59916" lon="4.95551">
        <ele>193.36</ele>
        <time>2019-05-27T12:46:47Z</time>
      </trkpt>
      <trkpt lat="49.59921" lon="4.95558">
        <ele>193.84</ele>
        <time>2019-05-27T12:46:53Z</time>
      </trkpt>
      <trkpt lat="49.59936" lon="4.95581">
        <ele>192.4</ele>
        <time>2019-05-27T12:47:11Z</time>
      </trkpt>
      <trkpt lat="49.5995" lon="4.95605">
        <ele>190.48</ele>
        <time>2019-05-27T12:47:29Z</time>
      </trkpt>
      <trkpt lat="49.59964" lon="4.95626">
        <ele>190</ele>
        <time>2019-05-27T12:47:45Z</time>
      </trkpt>
      <trkpt lat="49.5998" lon="4.95651">
        <ele>190.96</ele>
        <time>2019-05-27T12:48:04Z</time>
      </trkpt>
      <trkpt lat="49.59982" lon="4.95655">
        <ele>190.96</ele>
        <time>2019-05-27T12:48:06Z</time>
      </trkpt>
      <trkpt lat="49.59995" lon="4.95671">
        <ele>188.08</ele>
        <time>2019-05-27T12:48:22Z</time>
      </trkpt>
      <trkpt lat="49.60008" lon="4.95687">
        <ele>188.56</ele>
        <time>2019-05-27T12:48:37Z</time>
      </trkpt>
      <trkpt lat="49.60015" lon="4.95712">
        <ele>193.84</ele>
        <time>2019-05-27T12:48:52Z</time>
      </trkpt>
      <trkpt lat="49.6002" lon="4.95721">
        <ele>194.8</ele>
        <time>2019-05-27T12:48:58Z</time>
      </trkpt>
      <trkpt lat="49.60039" lon="4.95735">
        <ele>197.69</ele>
        <time>2019-05-27T12:49:16Z</time>
      </trkpt>
      <trkpt lat="49.60051" lon="4.95743">
        <ele>196.73</ele>
        <time>2019-05-27T12:49:28Z</time>
      </trkpt>
      <trkpt lat="49.60054" lon="4.95743">
        <ele>196.73</ele>
        <time>2019-05-27T12:49:30Z</time>
      </trkpt>
      <trkpt lat="49.60061" lon="4.95749">
        <ele>197.21</ele>
        <time>2019-05-27T12:49:37Z</time>
      </trkpt>
      <trkpt lat="49.60074" lon="4.95755">
        <ele>196.73</ele>
        <time>2019-05-27T12:49:48Z</time>
      </trkpt>
      <trkpt lat="49.60077" lon="4.95757">
        <ele>196.73</ele>
        <time>2019-05-27T12:49:51Z</time>
      </trkpt>
      <trkpt lat="49.60099" lon="4.9577">
        <ele>195.77</ele>
        <time>2019-05-27T12:50:12Z</time>
      </trkpt>
      <trkpt lat="49.6012" lon="4.95781">
        <ele>198.65</ele>
        <time>2019-05-27T12:50:30Z</time>
      </trkpt>
      <trkpt lat="49.60137" lon="4.95792">
        <ele>198.17</ele>
        <time>2019-05-27T12:50:48Z</time>
      </trkpt>
      <trkpt lat="49.60154" lon="4.958">
        <ele>198.17</ele>
        <time>2019-05-27T12:51:05Z</time>
      </trkpt>
      <trkpt lat="49.60175" lon="4.95807">
        <ele>199.61</ele>
        <time>2019-05-27T12:51:22Z</time>
      </trkpt>
      <trkpt lat="49.60192" lon="4.95809">
        <ele>200.09</ele>
        <time>2019-05-27T12:51:37Z</time>
      </trkpt>
      <trkpt lat="49.60208" lon="4.95814">
        <ele>197.21</ele>
        <time>2019-05-27T12:51:53Z</time>
      </trkpt>
      <trkpt lat="49.60217" lon="4.95811">
        <ele>194.8</ele>
        <time>2019-05-27T12:52:06Z</time>
      </trkpt>
      <trkpt lat="49.6023" lon="4.95803">
        <ele>193.36</ele>
        <time>2019-05-27T12:52:23Z</time>
      </trkpt>
      <trkpt lat="49.6025" lon="4.95802">
        <ele>191.44</ele>
        <time>2019-05-27T12:52:40Z</time>
      </trkpt>
      <trkpt lat="49.60275" lon="4.95801">
        <ele>192.4</ele>
        <time>2019-05-27T12:53:00Z</time>
      </trkpt>
      <trkpt lat="49.60288" lon="4.95798">
        <ele>194.32</ele>
        <time>2019-05-27T12:53:10Z</time>
      </trkpt>
      <trkpt lat="49.60296" lon="4.95807">
        <ele>194.8</ele>
        <time>2019-05-27T12:53:18Z</time>
      </trkpt>
      <trkpt lat="49.60301" lon="4.95814">
        <ele>196.25</ele>
        <time>2019-05-27T12:53:22Z</time>
      </trkpt>
      <trkpt lat="49.60316" lon="4.95827">
        <ele>196.25</ele>
        <time>2019-05-27T12:53:37Z</time>
      </trkpt>
      <trkpt lat="49.60336" lon="4.95843">
        <ele>200.09</ele>
        <time>2019-05-27T12:53:51Z</time>
      </trkpt>
      <trkpt lat="49.60349" lon="4.95862">
        <ele>204.42</ele>
        <time>2019-05-27T12:54:07Z</time>
      </trkpt>
      <trkpt lat="49.60358" lon="4.9588">
        <ele>203.46</ele>
        <time>2019-05-27T12:54:21Z</time>
      </trkpt>
      <trkpt lat="49.6036" lon="4.95883">
        <ele>202.98</ele>
        <time>2019-05-27T12:54:23Z</time>
      </trkpt>
      <trkpt lat="49.60361" lon="4.95886">
        <ele>202.98</ele>
        <time>2019-05-27T12:54:25Z</time>
      </trkpt>
      <trkpt lat="49.60368" lon="4.95901">
        <ele>203.46</ele>
        <time>2019-05-27T12:54:36Z</time>
      </trkpt>
      <trkpt lat="49.6037" lon="4.95905">
        <ele>203.46</ele>
        <time>2019-05-27T12:54:39Z</time>
      </trkpt>
      <trkpt lat="49.60382" lon="4.95915">
        <ele>202.98</ele>
        <time>2019-05-27T12:54:51Z</time>
      </trkpt>
      <trkpt lat="49.60384" lon="4.95916">
        <ele>202.98</ele>
        <time>2019-05-27T12:54:53Z</time>
      </trkpt>
      <trkpt lat="49.60393" lon="4.95919">
        <ele>206.34</ele>
        <time>2019-05-27T12:55:00Z</time>
      </trkpt>
      <trkpt lat="49.60413" lon="4.95938">
        <ele>206.82</ele>
        <time>2019-05-27T12:55:19Z</time>
      </trkpt>
      <trkpt lat="49.60418" lon="4.95941">
        <ele>207.78</ele>
        <time>2019-05-27T12:55:24Z</time>
      </trkpt>
      <trkpt lat="49.60436" lon="4.95958">
        <ele>208.26</ele>
        <time>2019-05-27T12:55:43Z</time>
      </trkpt>
      <trkpt lat="49.60455" lon="4.95978">
        <ele>207.78</ele>
        <time>2019-05-27T12:56:02Z</time>
      </trkpt>
      <trkpt lat="49.6047" lon="4.95997">
        <ele>208.74</ele>
        <time>2019-05-27T12:56:20Z</time>
      </trkpt>
      <trkpt lat="49.60486" lon="4.96024">
        <ele>210.67</ele>
        <time>2019-05-27T12:56:42Z</time>
      </trkpt>
      <trkpt lat="49.60498" lon="4.96051">
        <ele>211.63</ele>
        <time>2019-05-27T12:57:01Z</time>
      </trkpt>
      <trkpt lat="49.60508" lon="4.96075">
        <ele>214.03</ele>
        <time>2019-05-27T12:57:17Z</time>
      </trkpt>
      <trkpt lat="49.60512" lon="4.96085">
        <ele>214.51</ele>
        <time>2019-05-27T12:57:24Z</time>
      </trkpt>
      <trkpt lat="49.60516" lon="4.96092">
        <ele>214.03</ele>
        <time>2019-05-27T12:57:29Z</time>
      </trkpt>
      <trkpt lat="49.60527" lon="4.96116">
        <ele>214.51</ele>
        <time>2019-05-27T12:57:45Z</time>
      </trkpt>
      <trkpt lat="49.60535" lon="4.96138">
        <ele>214.03</ele>
        <time>2019-05-27T12:58:00Z</time>
      </trkpt>
      <trkpt lat="49.60542" lon="4.96164">
        <ele>211.63</ele>
        <time>2019-05-27T12:58:17Z</time>
      </trkpt>
      <trkpt lat="49.60543" lon="4.96174">
        <ele>211.63</ele>
        <time>2019-05-27T12:58:22Z</time>
      </trkpt>
      <trkpt lat="49.6055" lon="4.96193">
        <ele>213.55</ele>
        <time>2019-05-27T12:58:36Z</time>
      </trkpt>
      <trkpt lat="49.60553" lon="4.96222">
        <ele>210.67</ele>
        <time>2019-05-27T12:58:54Z</time>
      </trkpt>
      <trkpt lat="49.60553" lon="4.96261">
        <ele>207.3</ele>
        <time>2019-05-27T12:59:15Z</time>
      </trkpt>
      <trkpt lat="49.60554" lon="4.96292">
        <ele>205.38</ele>
        <time>2019-05-27T12:59:33Z</time>
      </trkpt>
      <trkpt lat="49.60554" lon="4.96322">
        <ele>203.94</ele>
        <time>2019-05-27T12:59:49Z</time>
      </trkpt>
      <trkpt lat="49.60551" lon="4.96351">
        <ele>200.57</ele>
        <time>2019-05-27T13:00:07Z</time>
      </trkpt>
      <trkpt lat="49.60551" lon="4.96377">
        <ele>197.69</ele>
        <time>2019-05-27T13:00:21Z</time>
      </trkpt>
      <trkpt lat="49.6055" lon="4.964">
        <ele>194.8</ele>
        <time>2019-05-27T13:00:35Z</time>
      </trkpt>
      <trkpt lat="49.6055" lon="4.96401">
        <ele>194.8</ele>
        <time>2019-05-27T13:00:36Z</time>
      </trkpt>
      <trkpt lat="49.60554" lon="4.96427">
        <ele>195.28</ele>
        <time>2019-05-27T13:00:52Z</time>
      </trkpt>
      <trkpt lat="49.60559" lon="4.96457">
        <ele>195.77</ele>
        <time>2019-05-27T13:01:08Z</time>
      </trkpt>
      <trkpt lat="49.60563" lon="4.96471">
        <ele>195.77</ele>
        <time>2019-05-27T13:01:18Z</time>
      </trkpt>
      <trkpt lat="49.60565" lon="4.96497">
        <ele>199.13</ele>
        <time>2019-05-27T13:01:31Z</time>
      </trkpt>
      <trkpt lat="49.60573" lon="4.96525">
        <ele>202.01</ele>
        <time>2019-05-27T13:01:45Z</time>
      </trkpt>
      <trkpt lat="49.6058" lon="4.9656">
        <ele>204.9</ele>
        <time>2019-05-27T13:02:04Z</time>
      </trkpt>
      <trkpt lat="49.60586" lon="4.96595">
        <ele>206.34</ele>
        <time>2019-05-27T13:02:24Z</time>
      </trkpt>
      <trkpt lat="49.60588" lon="4.96606">
        <ele>207.3</ele>
        <time>2019-05-27T13:02:30Z</time>
      </trkpt>
      <trkpt lat="49.60597" lon="4.96638">
        <ele>211.63</ele>
        <time>2019-05-27T13:02:49Z</time>
      </trkpt>
      <trkpt lat="49.60606" lon="4.96671">
        <ele>212.11</ele>
        <time>2019-05-27T13:03:08Z</time>
      </trkpt>
      <trkpt lat="49.60615" lon="4.96699">
        <ele>210.19</ele>
        <time>2019-05-27T13:03:26Z</time>
      </trkpt>
      <trkpt lat="49.60624" lon="4.9673">
        <ele>211.15</ele>
        <time>2019-05-27T13:03:45Z</time>
      </trkpt>
      <trkpt lat="49.60628" lon="4.96745">
        <ele>211.15</ele>
        <time>2019-05-27T13:03:55Z</time>
      </trkpt>
      <trkpt lat="49.60637" lon="4.96774">
        <ele>215.47</ele>
        <time>2019-05-27T13:04:13Z</time>
      </trkpt>
      <trkpt lat="49.60645" lon="4.96801">
        <ele>221.72</ele>
        <time>2019-05-27T13:04:31Z</time>
      </trkpt>
      <trkpt lat="49.6065" lon="4.9682">
        <ele>222.2</ele>
        <time>2019-05-27T13:04:45Z</time>
      </trkpt>
      <trkpt lat="49.60659" lon="4.96844">
        <ele>225.09</ele>
        <time>2019-05-27T13:05:01Z</time>
      </trkpt>
      <trkpt lat="49.60665" lon="4.96862">
        <ele>227.97</ele>
        <time>2019-05-27T13:05:15Z</time>
      </trkpt>
      <trkpt lat="49.6067" lon="4.96885">
        <ele>228.93</ele>
        <time>2019-05-27T13:05:32Z</time>
      </trkpt>
      <trkpt lat="49.60674" lon="4.96901">
        <ele>227.97</ele>
        <time>2019-05-27T13:05:45Z</time>
      </trkpt>
      <trkpt lat="49.60675" lon="4.9691">
        <ele>227.01</ele>
        <time>2019-05-27T13:05:51Z</time>
      </trkpt>
      <trkpt lat="49.60678" lon="4.96931">
        <ele>228.45</ele>
        <time>2019-05-27T13:06:04Z</time>
      </trkpt>
      <trkpt lat="49.6068" lon="4.96956">
        <ele>230.37</ele>
        <time>2019-05-27T13:06:17Z</time>
      </trkpt>
      <trkpt lat="49.60683" lon="4.96974">
        <ele>235.66</ele>
        <time>2019-05-27T13:06:28Z</time>
      </trkpt>
      <trkpt lat="49.60683" lon="4.9698">
        <ele>237.58</ele>
        <time>2019-05-27T13:06:32Z</time>
      </trkpt>
      <trkpt lat="49.60686" lon="4.97003">
        <ele>239.99</ele>
        <time>2019-05-27T13:06:47Z</time>
      </trkpt>
      <trkpt lat="49.60684" lon="4.97027">
        <ele>241.43</ele>
        <time>2019-05-27T13:07:02Z</time>
      </trkpt>
      <trkpt lat="49.60684" lon="4.97055">
        <ele>240.95</ele>
        <time>2019-05-27T13:07:19Z</time>
      </trkpt>
      <trkpt lat="49.60684" lon="4.97082">
        <ele>241.43</ele>
        <time>2019-05-27T13:07:35Z</time>
      </trkpt>
      <trkpt lat="49.60682" lon="4.97105">
        <ele>244.31</ele>
        <time>2019-05-27T13:07:48Z</time>
      </trkpt>
      <trkpt lat="49.60682" lon="4.97126">
        <ele>247.68</ele>
        <time>2019-05-27T13:08:00Z</time>
      </trkpt>
      <trkpt lat="49.60681" lon="4.97148">
        <ele>251.04</ele>
        <time>2019-05-27T13:08:12Z</time>
      </trkpt>
      <trkpt lat="49.6068" lon="4.97167">
        <ele>253.93</ele>
        <time>2019-05-27T13:08:23Z</time>
      </trkpt>
      <trkpt lat="49.60679" lon="4.97189">
        <ele>256.81</ele>
        <time>2019-05-27T13:08:35Z</time>
      </trkpt>
      <trkpt lat="49.6068" lon="4.97196">
        <ele>257.77</ele>
        <time>2019-05-27T13:08:40Z</time>
      </trkpt>
      <trkpt lat="49.6068" lon="4.97206">
        <ele>257.77</ele>
        <time>2019-05-27T13:08:46Z</time>
      </trkpt>
      <trkpt lat="49.60681" lon="4.97209">
        <ele>258.25</ele>
        <time>2019-05-27T13:08:48Z</time>
      </trkpt>
      <trkpt lat="49.60682" lon="4.97217">
        <ele>258.73</ele>
        <time>2019-05-27T13:08:53Z</time>
      </trkpt>
      <trkpt lat="49.60684" lon="4.97234">
        <ele>256.81</ele>
        <time>2019-05-27T13:09:06Z</time>
      </trkpt>
      <trkpt lat="49.60686" lon="4.97241">
        <ele>254.89</ele>
        <time>2019-05-27T13:09:18Z</time>
      </trkpt>
      <trkpt lat="49.60689" lon="4.97248">
        <ele>254.41</ele>
        <time>2019-05-27T13:09:36Z</time>
      </trkpt>
      <trkpt lat="49.60696" lon="4.97277">
        <ele>251.04</ele>
        <time>2019-05-27T13:09:56Z</time>
      </trkpt>
      <trkpt lat="49.60704" lon="4.97298">
        <ele>251.04</ele>
        <time>2019-05-27T13:10:11Z</time>
      </trkpt>
      <trkpt lat="49.60711" lon="4.97319">
        <ele>252.48</ele>
        <time>2019-05-27T13:10:27Z</time>
      </trkpt>
      <trkpt lat="49.60717" lon="4.97341">
        <ele>254.89</ele>
        <time>2019-05-27T13:10:42Z</time>
      </trkpt>
      <trkpt lat="49.60723" lon="4.97364">
        <ele>254.89</ele>
        <time>2019-05-27T13:10:58Z</time>
      </trkpt>
      <trkpt lat="49.60729" lon="4.97385">
        <ele>256.33</ele>
        <time>2019-05-27T13:11:13Z</time>
      </trkpt>
      <trkpt lat="49.60736" lon="4.97409">
        <ele>257.29</ele>
        <time>2019-05-27T13:11:29Z</time>
      </trkpt>
      <trkpt lat="49.60745" lon="4.97426">
        <ele>255.37</ele>
        <time>2019-05-27T13:11:45Z</time>
      </trkpt>
      <trkpt lat="49.60759" lon="4.97456">
        <ele>258.73</ele>
        <time>2019-05-27T13:12:07Z</time>
      </trkpt>
      <trkpt lat="49.60767" lon="4.97482">
        <ele>259.21</ele>
        <time>2019-05-27T13:12:25Z</time>
      </trkpt>
      <trkpt lat="49.6077" lon="4.97494">
        <ele>259.69</ele>
        <time>2019-05-27T13:12:41Z</time>
      </trkpt>
      <trkpt lat="49.60776" lon="4.97508">
        <ele>257.77</ele>
        <time>2019-05-27T13:12:56Z</time>
      </trkpt>
      <trkpt lat="49.60778" lon="4.9754">
        <ele>262.1</ele>
        <time>2019-05-27T13:13:13Z</time>
      </trkpt>
      <trkpt lat="49.6078" lon="4.97535">
        <ele>261.62</ele>
        <time>2019-05-27T13:13:30Z</time>
      </trkpt>
      <trkpt lat="49.6078" lon="4.97534">
        <ele>264.02</ele>
        <time>2019-05-27T13:13:51Z</time>
      </trkpt>
      <trkpt lat="49.60781" lon="4.97536">
        <ele>268.83</ele>
        <time>2019-05-27T13:14:18Z</time>
      </trkpt>
      <trkpt lat="49.6078" lon="4.97536">
        <ele>270.27</ele>
        <time>2019-05-27T13:14:47Z</time>
      </trkpt>
      <trkpt lat="49.6078" lon="4.97537">
        <ele>272.67</ele>
        <time>2019-05-27T13:15:16Z</time>
      </trkpt>
      <trkpt lat="49.6078" lon="4.97537">
        <ele>272.19</ele>
        <time>2019-05-27T13:15:39Z</time>
      </trkpt>
      <trkpt lat="49.6078" lon="4.97536">
        <ele>272.19</ele>
        <time>2019-05-27T13:16:05Z</time>
      </trkpt>
      <trkpt lat="49.6078" lon="4.97538">
        <ele>275.07</ele>
        <time>2019-05-27T13:16:32Z</time>
      </trkpt>
      <trkpt lat="49.6078" lon="4.97538">
        <ele>275.07</ele>
        <time>2019-05-27T13:16:54Z</time>
      </trkpt>
      <trkpt lat="49.60779" lon="4.97538">
        <ele>275.07</ele>
        <time>2019-05-27T13:17:23Z</time>
      </trkpt>
      <trkpt lat="49.60779" lon="4.97538">
        <ele>276.04</ele>
        <time>2019-05-27T13:17:51Z</time>
      </trkpt>
      <trkpt lat="49.60779" lon="4.97539">
        <ele>276.04</ele>
        <time>2019-05-27T13:18:16Z</time>
      </trkpt>
      <trkpt lat="49.6078" lon="4.97538">
        <ele>277</ele>
        <time>2019-05-27T13:18:42Z</time>
      </trkpt>
      <trkpt lat="49.6078" lon="4.97538">
        <ele>277</ele>
        <time>2019-05-27T13:19:10Z</time>
      </trkpt>
      <trkpt lat="49.60779" lon="4.97538">
        <ele>278.44</ele>
        <time>2019-05-27T13:19:38Z</time>
      </trkpt>
      <trkpt lat="49.60779" lon="4.97539">
        <ele>278.44</ele>
        <time>2019-05-27T13:20:03Z</time>
      </trkpt>
      <trkpt lat="49.6078" lon="4.97539">
        <ele>278.44</ele>
        <time>2019-05-27T13:20:26Z</time>
      </trkpt>
      <trkpt lat="49.6078" lon="4.97539">
        <ele>278.92</ele>
        <time>2019-05-27T13:20:54Z</time>
      </trkpt>
      <trkpt lat="49.60779" lon="4.97539">
        <ele>277.96</ele>
        <time>2019-05-27T13:21:25Z</time>
      </trkpt>
      <trkpt lat="49.60778" lon="4.97539">
        <ele>277.48</ele>
        <time>2019-05-27T13:21:49Z</time>
      </trkpt>
      <trkpt lat="49.60778" lon="4.97539">
        <ele>277.48</ele>
        <time>2019-05-27T13:22:15Z</time>
      </trkpt>
      <trkpt lat="49.60778" lon="4.97538">
        <ele>278.44</ele>
        <time>2019-05-27T13:22:37Z</time>
      </trkpt>
      <trkpt lat="49.60778" lon="4.97538">
        <ele>278.44</ele>
        <time>2019-05-27T13:22:59Z</time>
      </trkpt>
      <trkpt lat="49.60777" lon="4.97538">
        <ele>279.4</ele>
        <time>2019-05-27T13:23:24Z</time>
      </trkpt>
      <trkpt lat="49.60777" lon="4.97538">
        <ele>279.88</ele>
        <time>2019-05-27T13:23:53Z</time>
      </trkpt>
      <trkpt lat="49.60778" lon="4.97538">
        <ele>279.88</ele>
        <time>2019-05-27T13:24:17Z</time>
      </trkpt>
      <trkpt lat="49.60778" lon="4.97537">
        <ele>279.88</ele>
        <time>2019-05-27T13:24:47Z</time>
      </trkpt>
      <trkpt lat="49.60778" lon="4.97537">
        <ele>279.88</ele>
        <time>2019-05-27T13:25:14Z</time>
      </trkpt>
      <trkpt lat="49.60778" lon="4.97536">
        <ele>280.36</ele>
        <time>2019-05-27T13:25:46Z</time>
      </trkpt>
      <trkpt lat="49.60779" lon="4.97536">
        <ele>280.36</ele>
        <time>2019-05-27T13:26:14Z</time>
      </trkpt>
      <trkpt lat="49.60779" lon="4.97535">
        <ele>279.88</ele>
        <time>2019-05-27T13:26:44Z</time>
      </trkpt>
      <trkpt lat="49.60778" lon="4.97536">
        <ele>279.88</ele>
        <time>2019-05-27T13:27:15Z</time>
      </trkpt>
      <trkpt lat="49.60778" lon="4.97536">
        <ele>280.36</ele>
        <time>2019-05-27T13:27:40Z</time>
      </trkpt>
      <trkpt lat="49.60777" lon="4.97537">
        <ele>281.32</ele>
        <time>2019-05-27T13:28:08Z</time>
      </trkpt>
      <trkpt lat="49.60777" lon="4.97536">
        <ele>281.32</ele>
        <time>2019-05-27T13:28:35Z</time>
      </trkpt>
      <trkpt lat="49.60777" lon="4.97536">
        <ele>281.8</ele>
        <time>2019-05-27T13:29:00Z</time>
      </trkpt>
      <trkpt lat="49.60777" lon="4.97535">
        <ele>281.8</ele>
        <time>2019-05-27T13:29:25Z</time>
      </trkpt>
      <trkpt lat="49.60778" lon="4.97536">
        <ele>281.8</ele>
        <time>2019-05-27T13:29:49Z</time>
      </trkpt>
      <trkpt lat="49.60784" lon="4.97554">
        <ele>277.96</ele>
        <time>2019-05-27T13:30:06Z</time>
      </trkpt>
      <trkpt lat="49.60792" lon="4.97579">
        <ele>271.71</ele>
        <time>2019-05-27T13:30:24Z</time>
      </trkpt>
      <trkpt lat="49.608" lon="4.97604">
        <ele>269.31</ele>
        <time>2019-05-27T13:30:44Z</time>
      </trkpt>
      <trkpt lat="49.60808" lon="4.97629">
        <ele>266.42</ele>
        <time>2019-05-27T13:31:00Z</time>
      </trkpt>
      <trkpt lat="49.60821" lon="4.97662">
        <ele>263.54</ele>
        <time>2019-05-27T13:31:20Z</time>
      </trkpt>
      <trkpt lat="49.60827" lon="4.97692">
        <ele>266.42</ele>
        <time>2019-05-27T13:31:36Z</time>
      </trkpt>
      <trkpt lat="49.60832" lon="4.97729">
        <ele>274.59</ele>
        <time>2019-05-27T13:31:55Z</time>
      </trkpt>
      <trkpt lat="49.60836" lon="4.97751">
        <ele>276.52</ele>
        <time>2019-05-27T13:32:09Z</time>
      </trkpt>
      <trkpt lat="49.6084" lon="4.97774">
        <ele>281.32</ele>
        <time>2019-05-27T13:32:26Z</time>
      </trkpt>
      <trkpt lat="49.60848" lon="4.97806">
        <ele>285.17</ele>
        <time>2019-05-27T13:32:45Z</time>
      </trkpt>
      <trkpt lat="49.60855" lon="4.97831">
        <ele>286.61</ele>
        <time>2019-05-27T13:33:03Z</time>
      </trkpt>
      <trkpt lat="49.60863" lon="4.97858">
        <ele>289.49</ele>
        <time>2019-05-27T13:33:22Z</time>
      </trkpt>
      <trkpt lat="49.60869" lon="4.97876">
        <ele>288.05</ele>
        <time>2019-05-27T13:33:38Z</time>
      </trkpt>
      <trkpt lat="49.60886" lon="4.97904">
        <ele>289.49</ele>
        <time>2019-05-27T13:33:58Z</time>
      </trkpt>
      <trkpt lat="49.60899" lon="4.97929">
        <ele>286.13</ele>
        <time>2019-05-27T13:34:17Z</time>
      </trkpt>
      <trkpt lat="49.60905" lon="4.97943">
        <ele>287.09</ele>
        <time>2019-05-27T13:34:32Z</time>
      </trkpt>
      <trkpt lat="49.60914" lon="4.97968">
        <ele>287.09</ele>
        <time>2019-05-27T13:34:51Z</time>
      </trkpt>
      <trkpt lat="49.60923" lon="4.97985">
        <ele>286.61</ele>
        <time>2019-05-27T13:35:09Z</time>
      </trkpt>
      <trkpt lat="49.60938" lon="4.9801">
        <ele>288.05</ele>
        <time>2019-05-27T13:35:25Z</time>
      </trkpt>
      <trkpt lat="49.60951" lon="4.9803">
        <ele>288.53</ele>
        <time>2019-05-27T13:35:42Z</time>
      </trkpt>
      <trkpt lat="49.60958" lon="4.98041">
        <ele>290.94</ele>
        <time>2019-05-27T13:35:59Z</time>
      </trkpt>
      <trkpt lat="49.60973" lon="4.98056">
        <ele>293.82</ele>
        <time>2019-05-27T13:36:16Z</time>
      </trkpt>
      <trkpt lat="49.60994" lon="4.98076">
        <ele>295.26</ele>
        <time>2019-05-27T13:36:34Z</time>
      </trkpt>
      <trkpt lat="49.61013" lon="4.98071">
        <ele>301.03</ele>
        <time>2019-05-27T13:36:50Z</time>
      </trkpt>
      <trkpt lat="49.61027" lon="4.98052">
        <ele>302.95</ele>
        <time>2019-05-27T13:37:07Z</time>
      </trkpt>
      <trkpt lat="49.61042" lon="4.98034">
        <ele>308.24</ele>
        <time>2019-05-27T13:37:22Z</time>
      </trkpt>
      <trkpt lat="49.6105" lon="4.98017">
        <ele>308.24</ele>
        <time>2019-05-27T13:37:34Z</time>
      </trkpt>
      <trkpt lat="49.6106" lon="4.98005">
        <ele>310.16</ele>
        <time>2019-05-27T13:37:48Z</time>
      </trkpt>
      <trkpt lat="49.61072" lon="4.9799">
        <ele>309.2</ele>
        <time>2019-05-27T13:38:03Z</time>
      </trkpt>
      <trkpt lat="49.6108" lon="4.97972">
        <ele>305.84</ele>
        <time>2019-05-27T13:38:18Z</time>
      </trkpt>
      <trkpt lat="49.61091" lon="4.97957">
        <ele>308.24</ele>
        <time>2019-05-27T13:38:31Z</time>
      </trkpt>
      <trkpt lat="49.61099" lon="4.97944">
        <ele>307.76</ele>
        <time>2019-05-27T13:38:44Z</time>
      </trkpt>
      <trkpt lat="49.61105" lon="4.97932">
        <ele>307.28</ele>
        <time>2019-05-27T13:38:58Z</time>
      </trkpt>
      <trkpt lat="49.6112" lon="4.97912">
        <ele>303.91</ele>
        <time>2019-05-27T13:39:16Z</time>
      </trkpt>
      <trkpt lat="49.61132" lon="4.97896">
        <ele>301.99</ele>
        <time>2019-05-27T13:39:32Z</time>
      </trkpt>
      <trkpt lat="49.61138" lon="4.97893">
        <ele>303.43</ele>
        <time>2019-05-27T13:39:46Z</time>
      </trkpt>
      <trkpt lat="49.61149" lon="4.97882">
        <ele>302.47</ele>
        <time>2019-05-27T13:39:59Z</time>
      </trkpt>
      <trkpt lat="49.61157" lon="4.97872">
        <ele>300.55</ele>
        <time>2019-05-27T13:40:11Z</time>
      </trkpt>
      <trkpt lat="49.61168" lon="4.97858">
        <ele>299.11</ele>
        <time>2019-05-27T13:40:26Z</time>
      </trkpt>
      <trkpt lat="49.61176" lon="4.97846">
        <ele>300.07</ele>
        <time>2019-05-27T13:40:39Z</time>
      </trkpt>
      <trkpt lat="49.61182" lon="4.97842">
        <ele>301.99</ele>
        <time>2019-05-27T13:41:00Z</time>
      </trkpt>
      <trkpt lat="49.61189" lon="4.97835">
        <ele>306.32</ele>
        <time>2019-05-27T13:41:19Z</time>
      </trkpt>
      <trkpt lat="49.61193" lon="4.9783">
        <ele>307.28</ele>
        <time>2019-05-27T13:41:43Z</time>
      </trkpt>
      <trkpt lat="49.61195" lon="4.97828">
        <ele>308.72</ele>
        <time>2019-05-27T13:42:14Z</time>
      </trkpt>
      <trkpt lat="49.61197" lon="4.97826">
        <ele>309.2</ele>
        <time>2019-05-27T13:42:36Z</time>
      </trkpt>
      <trkpt lat="49.61199" lon="4.97826">
        <ele>310.64</ele>
        <time>2019-05-27T13:43:03Z</time>
      </trkpt>
      <trkpt lat="49.612" lon="4.97826">
        <ele>311.6</ele>
        <time>2019-05-27T13:43:25Z</time>
      </trkpt>
      <trkpt lat="49.612" lon="4.97825">
        <ele>313.05</ele>
        <time>2019-05-27T13:43:41Z</time>
      </trkpt>
      <trkpt lat="49.61202" lon="4.97822">
        <ele>312.09</ele>
        <time>2019-05-27T13:43:58Z</time>
      </trkpt>
      <trkpt lat="49.61208" lon="4.97818">
        <ele>311.12</ele>
        <time>2019-05-27T13:44:05Z</time>
      </trkpt>
      <trkpt lat="49.6121" lon="4.97816">
        <ele>311.12</ele>
        <time>2019-05-27T13:44:07Z</time>
      </trkpt>
      <trkpt lat="49.61226" lon="4.97797">
        <ele>309.2</ele>
        <time>2019-05-27T13:44:23Z</time>
      </trkpt>
      <trkpt lat="49.61239" lon="4.97783">
        <ele>301.51</ele>
        <time>2019-05-27T13:44:38Z</time>
      </trkpt>
      <trkpt lat="49.61245" lon="4.97782">
        <ele>300.55</ele>
        <time>2019-05-27T13:44:44Z</time>
      </trkpt>
      <trkpt lat="49.61263" lon="4.97773">
        <ele>293.34</ele>
        <time>2019-05-27T13:45:04Z</time>
      </trkpt>
      <trkpt lat="49.6127" lon="4.97771">
        <ele>290.46</ele>
        <time>2019-05-27T13:45:13Z</time>
      </trkpt>
      <trkpt lat="49.61285" lon="4.97757">
        <ele>286.13</ele>
        <time>2019-05-27T13:45:30Z</time>
      </trkpt>
      <trkpt lat="49.61299" lon="4.97745">
        <ele>283.25</ele>
        <time>2019-05-27T13:45:47Z</time>
      </trkpt>
      <trkpt lat="49.61307" lon="4.97742">
        <ele>281.32</ele>
        <time>2019-05-27T13:45:55Z</time>
      </trkpt>
      <trkpt lat="49.61312" lon="4.97737">
        <ele>280.36</ele>
        <time>2019-05-27T13:46:00Z</time>
      </trkpt>
      <trkpt lat="49.61327" lon="4.97721">
        <ele>279.88</ele>
        <time>2019-05-27T13:46:16Z</time>
      </trkpt>
      <trkpt lat="49.61341" lon="4.97706">
        <ele>279.4</ele>
        <time>2019-05-27T13:46:32Z</time>
      </trkpt>
      <trkpt lat="49.61359" lon="4.97689">
        <ele>276.52</ele>
        <time>2019-05-27T13:46:52Z</time>
      </trkpt>
      <trkpt lat="49.61377" lon="4.9767">
        <ele>276.52</ele>
        <time>2019-05-27T13:47:11Z</time>
      </trkpt>
      <trkpt lat="49.61379" lon="4.97668">
        <ele>276.52</ele>
        <time>2019-05-27T13:47:13Z</time>
      </trkpt>
      <trkpt lat="49.61394" lon="4.97655">
        <ele>276.52</ele>
        <time>2019-05-27T13:47:32Z</time>
      </trkpt>
      <trkpt lat="49.61412" lon="4.97635">
        <ele>275.07</ele>
        <time>2019-05-27T13:47:54Z</time>
      </trkpt>
      <trkpt lat="49.61427" lon="4.97618">
        <ele>273.63</ele>
        <time>2019-05-27T13:48:11Z</time>
      </trkpt>
      <trkpt lat="49.61442" lon="4.97599">
        <ele>273.15</ele>
        <time>2019-05-27T13:48:30Z</time>
      </trkpt>
      <trkpt lat="49.61456" lon="4.97579">
        <ele>271.23</ele>
        <time>2019-05-27T13:48:49Z</time>
      </trkpt>
      <trkpt lat="49.6147" lon="4.9756">
        <ele>269.31</ele>
        <time>2019-05-27T13:49:08Z</time>
      </trkpt>
      <trkpt lat="49.61486" lon="4.9754">
        <ele>267.86</ele>
        <time>2019-05-27T13:49:28Z</time>
      </trkpt>
      <trkpt lat="49.61498" lon="4.97525">
        <ele>265.94</ele>
        <time>2019-05-27T13:49:44Z</time>
      </trkpt>
      <trkpt lat="49.61511" lon="4.97507">
        <ele>263.54</ele>
        <time>2019-05-27T13:50:02Z</time>
      </trkpt>
      <trkpt lat="49.61528" lon="4.97484">
        <ele>260.65</ele>
        <time>2019-05-27T13:50:22Z</time>
      </trkpt>
      <trkpt lat="49.61541" lon="4.97463">
        <ele>259.21</ele>
        <time>2019-05-27T13:50:39Z</time>
      </trkpt>
      <trkpt lat="49.61555" lon="4.97439">
        <ele>257.77</ele>
        <time>2019-05-27T13:50:58Z</time>
      </trkpt>
      <trkpt lat="49.61567" lon="4.97419">
        <ele>257.29</ele>
        <time>2019-05-27T13:51:13Z</time>
      </trkpt>
      <trkpt lat="49.61584" lon="4.97394">
        <ele>256.33</ele>
        <time>2019-05-27T13:51:34Z</time>
      </trkpt>
      <trkpt lat="49.61596" lon="4.97373">
        <ele>255.37</ele>
        <time>2019-05-27T13:51:49Z</time>
      </trkpt>
      <trkpt lat="49.61613" lon="4.9735">
        <ele>254.89</ele>
        <time>2019-05-27T13:52:08Z</time>
      </trkpt>
      <trkpt lat="49.61628" lon="4.97328">
        <ele>254.89</ele>
        <time>2019-05-27T13:52:27Z</time>
      </trkpt>
      <trkpt lat="49.61645" lon="4.97305">
        <ele>256.33</ele>
        <time>2019-05-27T13:52:47Z</time>
      </trkpt>
      <trkpt lat="49.61666" lon="4.97279">
        <ele>255.37</ele>
        <time>2019-05-27T13:53:10Z</time>
      </trkpt>
      <trkpt lat="49.61685" lon="4.9725">
        <ele>253.44</ele>
        <time>2019-05-27T13:53:33Z</time>
      </trkpt>
      <trkpt lat="49.6169" lon="4.97242">
        <ele>252.96</ele>
        <time>2019-05-27T13:53:40Z</time>
      </trkpt>
      <trkpt lat="49.61701" lon="4.97215">
        <ele>252.96</ele>
        <time>2019-05-27T13:53:59Z</time>
      </trkpt>
      <trkpt lat="49.61717" lon="4.97191">
        <ele>252</ele>
        <time>2019-05-27T13:54:17Z</time>
      </trkpt>
      <trkpt lat="49.61734" lon="4.97172">
        <ele>252.48</ele>
        <time>2019-05-27T13:54:35Z</time>
      </trkpt>
      <trkpt lat="49.61749" lon="4.97159">
        <ele>252</ele>
        <time>2019-05-27T13:54:50Z</time>
      </trkpt>
      <trkpt lat="49.61755" lon="4.97161">
        <ele>250.56</ele>
        <time>2019-05-27T13:54:57Z</time>
      </trkpt>
      <trkpt lat="49.61763" lon="4.97189">
        <ele>249.6</ele>
        <time>2019-05-27T13:55:15Z</time>
      </trkpt>
      <trkpt lat="49.61773" lon="4.9722">
        <ele>251.52</ele>
        <time>2019-05-27T13:55:37Z</time>
      </trkpt>
      <trkpt lat="49.61774" lon="4.97224">
        <ele>252.48</ele>
        <time>2019-05-27T13:55:40Z</time>
      </trkpt>
      <trkpt lat="49.61778" lon="4.97246">
        <ele>253.93</ele>
        <time>2019-05-27T13:55:54Z</time>
      </trkpt>
      <trkpt lat="49.61784" lon="4.97267">
        <ele>253.93</ele>
        <time>2019-05-27T13:56:08Z</time>
      </trkpt>
      <trkpt lat="49.61791" lon="4.97292">
        <ele>255.37</ele>
        <time>2019-05-27T13:56:25Z</time>
      </trkpt>
      <trkpt lat="49.61798" lon="4.97319">
        <ele>257.29</ele>
        <time>2019-05-27T13:56:42Z</time>
      </trkpt>
      <trkpt lat="49.61805" lon="4.97347">
        <ele>258.25</ele>
        <time>2019-05-27T13:56:59Z</time>
      </trkpt>
      <trkpt lat="49.61812" lon="4.97377">
        <ele>260.65</ele>
        <time>2019-05-27T13:57:18Z</time>
      </trkpt>
      <trkpt lat="49.61818" lon="4.97406">
        <ele>264.02</ele>
        <time>2019-05-27T13:57:37Z</time>
      </trkpt>
      <trkpt lat="49.61824" lon="4.97418">
        <ele>265.46</ele>
        <time>2019-05-27T13:57:46Z</time>
      </trkpt>
      <trkpt lat="49.61842" lon="4.97437">
        <ele>267.38</ele>
        <time>2019-05-27T13:58:06Z</time>
      </trkpt>
      <trkpt lat="49.61857" lon="4.97456">
        <ele>268.83</ele>
        <time>2019-05-27T13:58:23Z</time>
      </trkpt>
      <trkpt lat="49.61873" lon="4.97478">
        <ele>270.75</ele>
        <time>2019-05-27T13:58:43Z</time>
      </trkpt>
      <trkpt lat="49.61892" lon="4.97499">
        <ele>274.11</ele>
        <time>2019-05-27T13:59:06Z</time>
      </trkpt>
      <trkpt lat="49.61909" lon="4.97505">
        <ele>273.63</ele>
        <time>2019-05-27T13:59:23Z</time>
      </trkpt>
      <trkpt lat="49.61929" lon="4.97505">
        <ele>274.11</ele>
        <time>2019-05-27T13:59:42Z</time>
      </trkpt>
      <trkpt lat="49.61948" lon="4.97504">
        <ele>276.04</ele>
        <time>2019-05-27T14:00:00Z</time>
      </trkpt>
      <trkpt lat="49.61966" lon="4.97504">
        <ele>277.48</ele>
        <time>2019-05-27T14:00:17Z</time>
      </trkpt>
      <trkpt lat="49.61987" lon="4.97503">
        <ele>277.96</ele>
        <time>2019-05-27T14:00:37Z</time>
      </trkpt>
      <trkpt lat="49.62006" lon="4.97505">
        <ele>278.44</ele>
        <time>2019-05-27T14:00:55Z</time>
      </trkpt>
      <trkpt lat="49.62026" lon="4.97507">
        <ele>279.4</ele>
        <time>2019-05-27T14:01:14Z</time>
      </trkpt>
      <trkpt lat="49.62037" lon="4.97524">
        <ele>281.32</ele>
        <time>2019-05-27T14:01:32Z</time>
      </trkpt>
      <trkpt lat="49.62034" lon="4.97554">
        <ele>282.77</ele>
        <time>2019-05-27T14:01:51Z</time>
      </trkpt>
      <trkpt lat="49.62033" lon="4.97587">
        <ele>283.25</ele>
        <time>2019-05-27T14:02:10Z</time>
      </trkpt>
      <trkpt lat="49.62031" lon="4.97623">
        <ele>283.73</ele>
        <time>2019-05-27T14:02:31Z</time>
      </trkpt>
      <trkpt lat="49.62028" lon="4.97655">
        <ele>282.77</ele>
        <time>2019-05-27T14:02:51Z</time>
      </trkpt>
      <trkpt lat="49.62024" lon="4.97685">
        <ele>280.36</ele>
        <time>2019-05-27T14:03:10Z</time>
      </trkpt>
      <trkpt lat="49.6202" lon="4.97714">
        <ele>279.4</ele>
        <time>2019-05-27T14:03:27Z</time>
      </trkpt>
      <trkpt lat="49.62015" lon="4.97745">
        <ele>278.92</ele>
        <time>2019-05-27T14:03:47Z</time>
      </trkpt>
      <trkpt lat="49.6201" lon="4.97774">
        <ele>279.4</ele>
        <time>2019-05-27T14:04:05Z</time>
      </trkpt>
      <trkpt lat="49.62005" lon="4.97801">
        <ele>279.4</ele>
        <time>2019-05-27T14:04:22Z</time>
      </trkpt>
      <trkpt lat="49.61999" lon="4.97834">
        <ele>280.36</ele>
        <time>2019-05-27T14:04:42Z</time>
      </trkpt>
      <trkpt lat="49.61988" lon="4.97859">
        <ele>282.28</ele>
        <time>2019-05-27T14:05:01Z</time>
      </trkpt>
      <trkpt lat="49.61975" lon="4.97887">
        <ele>284.21</ele>
        <time>2019-05-27T14:05:21Z</time>
      </trkpt>
      <trkpt lat="49.61961" lon="4.97914">
        <ele>284.21</ele>
        <time>2019-05-27T14:05:41Z</time>
      </trkpt>
      <trkpt lat="49.61945" lon="4.97936">
        <ele>284.69</ele>
        <time>2019-05-27T14:06:00Z</time>
      </trkpt>
      <trkpt lat="49.6193" lon="4.97954">
        <ele>285.65</ele>
        <time>2019-05-27T14:06:18Z</time>
      </trkpt>
      <trkpt lat="49.61917" lon="4.97974">
        <ele>286.61</ele>
        <time>2019-05-27T14:06:35Z</time>
      </trkpt>
      <trkpt lat="49.61905" lon="4.97996">
        <ele>287.57</ele>
        <time>2019-05-27T14:06:52Z</time>
      </trkpt>
      <trkpt lat="49.61895" lon="4.98015">
        <ele>287.57</ele>
        <time>2019-05-27T14:07:09Z</time>
      </trkpt>
      <trkpt lat="49.61884" lon="4.98039">
        <ele>288.53</ele>
        <time>2019-05-27T14:07:26Z</time>
      </trkpt>
      <trkpt lat="49.61873" lon="4.98061">
        <ele>290.46</ele>
        <time>2019-05-27T14:07:44Z</time>
      </trkpt>
      <trkpt lat="49.61865" lon="4.98085">
        <ele>291.42</ele>
        <time>2019-05-27T14:08:01Z</time>
      </trkpt>
      <trkpt lat="49.61853" lon="4.98113">
        <ele>291.42</ele>
        <time>2019-05-27T14:08:20Z</time>
      </trkpt>
      <trkpt lat="49.61844" lon="4.98134">
        <ele>293.34</ele>
        <time>2019-05-27T14:08:34Z</time>
      </trkpt>
      <trkpt lat="49.6184" lon="4.98143">
        <ele>293.82</ele>
        <time>2019-05-27T14:08:40Z</time>
      </trkpt>
      <trkpt lat="49.61828" lon="4.9817">
        <ele>293.34</ele>
        <time>2019-05-27T14:08:59Z</time>
      </trkpt>
      <trkpt lat="49.61828" lon="4.98178">
        <ele>294.3</ele>
        <time>2019-05-27T14:09:12Z</time>
      </trkpt>
      <trkpt lat="49.61835" lon="4.98181">
        <ele>294.3</ele>
        <time>2019-05-27T14:09:28Z</time>
      </trkpt>
      <trkpt lat="49.61847" lon="4.98174">
        <ele>291.9</ele>
        <time>2019-05-27T14:09:44Z</time>
      </trkpt>
      <trkpt lat="49.61861" lon="4.98167">
        <ele>288.53</ele>
        <time>2019-05-27T14:10:00Z</time>
      </trkpt>
      <trkpt lat="49.61878" lon="4.98157">
        <ele>279.88</ele>
        <time>2019-05-27T14:10:19Z</time>
      </trkpt>
      <trkpt lat="49.61888" lon="4.98159">
        <ele>277.48</ele>
        <time>2019-05-27T14:10:38Z</time>
      </trkpt>
      <trkpt lat="49.61902" lon="4.98162">
        <ele>276.04</ele>
        <time>2019-05-27T14:10:54Z</time>
      </trkpt>
      <trkpt lat="49.61911" lon="4.98163">
        <ele>277</ele>
        <time>2019-05-27T14:11:11Z</time>
      </trkpt>
      <trkpt lat="49.61931" lon="4.98168">
        <ele>272.19</ele>
        <time>2019-05-27T14:11:28Z</time>
      </trkpt>
      <trkpt lat="49.61951" lon="4.98173">
        <ele>271.71</ele>
        <time>2019-05-27T14:11:46Z</time>
      </trkpt>
      <trkpt lat="49.61976" lon="4.98185">
        <ele>273.15</ele>
        <time>2019-05-27T14:12:06Z</time>
      </trkpt>
      <trkpt lat="49.61982" lon="4.98187">
        <ele>272.67</ele>
        <time>2019-05-27T14:12:11Z</time>
      </trkpt>
      <trkpt lat="49.61999" lon="4.98197">
        <ele>270.75</ele>
        <time>2019-05-27T14:12:27Z</time>
      </trkpt>
      <trkpt lat="49.62017" lon="4.98207">
        <ele>270.27</ele>
        <time>2019-05-27T14:12:44Z</time>
      </trkpt>
      <trkpt lat="49.62028" lon="4.9821">
        <ele>271.71</ele>
        <time>2019-05-27T14:12:53Z</time>
      </trkpt>
      <trkpt lat="49.62048" lon="4.98216">
        <ele>275.56</ele>
        <time>2019-05-27T14:13:09Z</time>
      </trkpt>
      <trkpt lat="49.62066" lon="4.98221">
        <ele>280.36</ele>
        <time>2019-05-27T14:13:24Z</time>
      </trkpt>
      <trkpt lat="49.62086" lon="4.9823">
        <ele>283.25</ele>
        <time>2019-05-27T14:13:41Z</time>
      </trkpt>
      <trkpt lat="49.62094" lon="4.98236">
        <ele>283.73</ele>
        <time>2019-05-27T14:13:49Z</time>
      </trkpt>
      <trkpt lat="49.62109" lon="4.98245">
        <ele>283.73</ele>
        <time>2019-05-27T14:14:05Z</time>
      </trkpt>
      <trkpt lat="49.62117" lon="4.98253">
        <ele>283.25</ele>
        <time>2019-05-27T14:14:16Z</time>
      </trkpt>
      <trkpt lat="49.62132" lon="4.98266">
        <ele>277.48</ele>
        <time>2019-05-27T14:14:34Z</time>
      </trkpt>
      <trkpt lat="49.6214" lon="4.98272">
        <ele>276.04</ele>
        <time>2019-05-27T14:14:42Z</time>
      </trkpt>
      <trkpt lat="49.62156" lon="4.98278">
        <ele>274.59</ele>
        <time>2019-05-27T14:14:59Z</time>
      </trkpt>
      <trkpt lat="49.62172" lon="4.98288">
        <ele>271.71</ele>
        <time>2019-05-27T14:15:18Z</time>
      </trkpt>
      <trkpt lat="49.62181" lon="4.98296">
        <ele>270.27</ele>
        <time>2019-05-27T14:15:38Z</time>
      </trkpt>
      <trkpt lat="49.62198" lon="4.98302">
        <ele>265.94</ele>
        <time>2019-05-27T14:15:58Z</time>
      </trkpt>
      <trkpt lat="49.62209" lon="4.98303">
        <ele>265.46</ele>
        <time>2019-05-27T14:16:17Z</time>
      </trkpt>
      <trkpt lat="49.62231" lon="4.98315">
        <ele>262.58</ele>
        <time>2019-05-27T14:16:36Z</time>
      </trkpt>
      <trkpt lat="49.62247" lon="4.98328">
        <ele>264.98</ele>
        <time>2019-05-27T14:16:51Z</time>
      </trkpt>
      <trkpt lat="49.62273" lon="4.98352">
        <ele>267.86</ele>
        <time>2019-05-27T14:17:05Z</time>
      </trkpt>
      <trkpt lat="49.6229" lon="4.98374">
        <ele>270.75</ele>
        <time>2019-05-27T14:17:21Z</time>
      </trkpt>
      <trkpt lat="49.623" lon="4.98388">
        <ele>268.83</ele>
        <time>2019-05-27T14:17:35Z</time>
      </trkpt>
      <trkpt lat="49.6231" lon="4.98409">
        <ele>268.35</ele>
        <time>2019-05-27T14:17:51Z</time>
      </trkpt>
      <trkpt lat="49.62325" lon="4.98425">
        <ele>264.02</ele>
        <time>2019-05-27T14:18:09Z</time>
      </trkpt>
      <trkpt lat="49.6233" lon="4.98433">
        <ele>264.5</ele>
        <time>2019-05-27T14:18:16Z</time>
      </trkpt>
      <trkpt lat="49.62349" lon="4.98453">
        <ele>266.9</ele>
        <time>2019-05-27T14:18:35Z</time>
      </trkpt>
      <trkpt lat="49.62365" lon="4.98464">
        <ele>267.38</ele>
        <time>2019-05-27T14:18:52Z</time>
      </trkpt>
      <trkpt lat="49.62381" lon="4.98472">
        <ele>265.94</ele>
        <time>2019-05-27T14:19:10Z</time>
      </trkpt>
      <trkpt lat="49.62397" lon="4.98482">
        <ele>264.02</ele>
        <time>2019-05-27T14:19:27Z</time>
      </trkpt>
      <trkpt lat="49.62414" lon="4.98493">
        <ele>262.58</ele>
        <time>2019-05-27T14:19:46Z</time>
      </trkpt>
      <trkpt lat="49.62433" lon="4.98507">
        <ele>261.14</ele>
        <time>2019-05-27T14:20:05Z</time>
      </trkpt>
      <trkpt lat="49.62449" lon="4.98522">
        <ele>261.62</ele>
        <time>2019-05-27T14:20:23Z</time>
      </trkpt>
      <trkpt lat="49.62464" lon="4.98533">
        <ele>260.65</ele>
        <time>2019-05-27T14:20:41Z</time>
      </trkpt>
      <trkpt lat="49.62481" lon="4.98545">
        <ele>261.14</ele>
        <time>2019-05-27T14:20:58Z</time>
      </trkpt>
      <trkpt lat="49.62502" lon="4.98558">
        <ele>261.62</ele>
        <time>2019-05-27T14:21:19Z</time>
      </trkpt>
      <trkpt lat="49.62514" lon="4.98565">
        <ele>261.62</ele>
        <time>2019-05-27T14:21:34Z</time>
      </trkpt>
      <trkpt lat="49.62533" lon="4.98562">
        <ele>259.69</ele>
        <time>2019-05-27T14:21:53Z</time>
      </trkpt>
      <trkpt lat="49.62549" lon="4.98561">
        <ele>256.81</ele>
        <time>2019-05-27T14:22:09Z</time>
      </trkpt>
      <trkpt lat="49.6255" lon="4.98576">
        <ele>255.85</ele>
        <time>2019-05-27T14:22:24Z</time>
      </trkpt>
      <trkpt lat="49.62549" lon="4.98578">
        <ele>254.89</ele>
        <time>2019-05-27T14:22:41Z</time>
      </trkpt>
      <trkpt lat="49.62545" lon="4.98588">
        <ele>254.41</ele>
        <time>2019-05-27T14:22:59Z</time>
      </trkpt>
      <trkpt lat="49.62531" lon="4.98604">
        <ele>252.48</ele>
        <time>2019-05-27T14:23:17Z</time>
      </trkpt>
      <trkpt lat="49.62518" lon="4.98614">
        <ele>251.04</ele>
        <time>2019-05-27T14:23:34Z</time>
      </trkpt>
      <trkpt lat="49.62504" lon="4.98624">
        <ele>250.08</ele>
        <time>2019-05-27T14:23:50Z</time>
      </trkpt>
      <trkpt lat="49.6249" lon="4.98639">
        <ele>247.68</ele>
        <time>2019-05-27T14:24:08Z</time>
      </trkpt>
      <trkpt lat="49.62481" lon="4.98658">
        <ele>247.2</ele>
        <time>2019-05-27T14:24:23Z</time>
      </trkpt>
      <trkpt lat="49.62478" lon="4.98665">
        <ele>247.2</ele>
        <time>2019-05-27T14:24:28Z</time>
      </trkpt>
      <trkpt lat="49.62469" lon="4.98682">
        <ele>245.75</ele>
        <time>2019-05-27T14:24:43Z</time>
      </trkpt>
      <trkpt lat="49.62461" lon="4.98702">
        <ele>247.2</ele>
        <time>2019-05-27T14:24:59Z</time>
      </trkpt>
      <trkpt lat="49.62453" lon="4.98726">
        <ele>249.6</ele>
        <time>2019-05-27T14:25:15Z</time>
      </trkpt>
      <trkpt lat="49.62446" lon="4.98751">
        <ele>256.81</ele>
        <time>2019-05-27T14:25:29Z</time>
      </trkpt>
      <trkpt lat="49.62447" lon="4.98764">
        <ele>261.14</ele>
        <time>2019-05-27T14:25:47Z</time>
      </trkpt>
      <trkpt lat="49.62451" lon="4.9877">
        <ele>263.06</ele>
        <time>2019-05-27T14:26:02Z</time>
      </trkpt>
      <trkpt lat="49.62453" lon="4.98772">
        <ele>264.02</ele>
        <time>2019-05-27T14:26:18Z</time>
      </trkpt>
      <trkpt lat="49.62454" lon="4.9877">
        <ele>264.5</ele>
        <time>2019-05-27T14:26:36Z</time>
      </trkpt>
      <trkpt lat="49.62455" lon="4.98769">
        <ele>264.98</ele>
        <time>2019-05-27T14:26:49Z</time>
      </trkpt>
      <trkpt lat="49.6247" lon="4.98774">
        <ele>265.94</ele>
        <time>2019-05-27T14:27:06Z</time>
      </trkpt>
      <trkpt lat="49.62492" lon="4.98782">
        <ele>270.27</ele>
        <time>2019-05-27T14:27:21Z</time>
      </trkpt>
      <trkpt lat="49.62513" lon="4.98787">
        <ele>275.56</ele>
        <time>2019-05-27T14:27:36Z</time>
      </trkpt>
      <trkpt lat="49.62528" lon="4.9879">
        <ele>275.07</ele>
        <time>2019-05-27T14:27:52Z</time>
      </trkpt>
      <trkpt lat="49.62542" lon="4.98797">
        <ele>276.52</ele>
        <time>2019-05-27T14:28:07Z</time>
      </trkpt>
      <trkpt lat="49.62556" lon="4.988">
        <ele>277.48</ele>
        <time>2019-05-27T14:28:22Z</time>
      </trkpt>
      <trkpt lat="49.62566" lon="4.98804">
        <ele>276.52</ele>
        <time>2019-05-27T14:28:39Z</time>
      </trkpt>
      <trkpt lat="49.62572" lon="4.98812">
        <ele>277</ele>
        <time>2019-05-27T14:28:55Z</time>
      </trkpt>
      <trkpt lat="49.62578" lon="4.98813">
        <ele>277.96</ele>
        <time>2019-05-27T14:29:11Z</time>
      </trkpt>
      <trkpt lat="49.62587" lon="4.98811">
        <ele>279.4</ele>
        <time>2019-05-27T14:29:27Z</time>
      </trkpt>
      <trkpt lat="49.62596" lon="4.98814">
        <ele>277.48</ele>
        <time>2019-05-27T14:29:40Z</time>
      </trkpt>
      <trkpt lat="49.62602" lon="4.98818">
        <ele>276.52</ele>
        <time>2019-05-27T14:29:56Z</time>
      </trkpt>
      <trkpt lat="49.62609" lon="4.98821">
        <ele>273.63</ele>
        <time>2019-05-27T14:30:11Z</time>
      </trkpt>
      <trkpt lat="49.62619" lon="4.98826">
        <ele>272.19</ele>
        <time>2019-05-27T14:30:23Z</time>
      </trkpt>
      <trkpt lat="49.62643" lon="4.98836">
        <ele>274.59</ele>
        <time>2019-05-27T14:30:38Z</time>
      </trkpt>
      <trkpt lat="49.62662" lon="4.98842">
        <ele>276.52</ele>
        <time>2019-05-27T14:30:55Z</time>
      </trkpt>
      <trkpt lat="49.62682" lon="4.98851">
        <ele>279.88</ele>
        <time>2019-05-27T14:31:10Z</time>
      </trkpt>
      <trkpt lat="49.62702" lon="4.98858">
        <ele>280.36</ele>
        <time>2019-05-27T14:31:26Z</time>
      </trkpt>
      <trkpt lat="49.62715" lon="4.98862">
        <ele>278.92</ele>
        <time>2019-05-27T14:31:42Z</time>
      </trkpt>
      <trkpt lat="49.62726" lon="4.98864">
        <ele>279.88</ele>
        <time>2019-05-27T14:31:57Z</time>
      </trkpt>
      <trkpt lat="49.62747" lon="4.98869">
        <ele>283.25</ele>
        <time>2019-05-27T14:32:10Z</time>
      </trkpt>
      <trkpt lat="49.62748" lon="4.9887">
        <ele>283.25</ele>
        <time>2019-05-27T14:32:11Z</time>
      </trkpt>
      <trkpt lat="49.62763" lon="4.98874">
        <ele>282.77</ele>
        <time>2019-05-27T14:32:27Z</time>
      </trkpt>
      <trkpt lat="49.62766" lon="4.98874">
        <ele>281.8</ele>
        <time>2019-05-27T14:32:32Z</time>
      </trkpt>
      <trkpt lat="49.62771" lon="4.98878">
        <ele>281.32</ele>
        <time>2019-05-27T14:32:38Z</time>
      </trkpt>
      <trkpt lat="49.62781" lon="4.98883">
        <ele>279.88</ele>
        <time>2019-05-27T14:32:53Z</time>
      </trkpt>
      <trkpt lat="49.62785" lon="4.98887">
        <ele>279.4</ele>
        <time>2019-05-27T14:33:08Z</time>
      </trkpt>
      <trkpt lat="49.62794" lon="4.98895">
        <ele>275.56</ele>
        <time>2019-05-27T14:33:23Z</time>
      </trkpt>
      <trkpt lat="49.62799" lon="4.98898">
        <ele>276.04</ele>
        <time>2019-05-27T14:33:36Z</time>
      </trkpt>
      <trkpt lat="49.62807" lon="4.98902">
        <ele>276.04</ele>
        <time>2019-05-27T14:33:53Z</time>
      </trkpt>
      <trkpt lat="49.62827" lon="4.98911">
        <ele>270.27</ele>
        <time>2019-05-27T14:34:07Z</time>
      </trkpt>
      <trkpt lat="49.62851" lon="4.98926">
        <ele>265.46</ele>
        <time>2019-05-27T14:34:24Z</time>
      </trkpt>
      <trkpt lat="49.6287" lon="4.98924">
        <ele>264.98</ele>
        <time>2019-05-27T14:34:38Z</time>
      </trkpt>
      <trkpt lat="49.62881" lon="4.98917">
        <ele>266.42</ele>
        <time>2019-05-27T14:34:56Z</time>
      </trkpt>
      <trkpt lat="49.62889" lon="4.9891">
        <ele>269.79</ele>
        <time>2019-05-27T14:35:10Z</time>
      </trkpt>
      <trkpt lat="49.62899" lon="4.98895">
        <ele>267.38</ele>
        <time>2019-05-27T14:35:27Z</time>
      </trkpt>
      <trkpt lat="49.62916" lon="4.98882">
        <ele>261.14</ele>
        <time>2019-05-27T14:35:42Z</time>
      </trkpt>
      <trkpt lat="49.62931" lon="4.98867">
        <ele>258.73</ele>
        <time>2019-05-27T14:35:57Z</time>
      </trkpt>
      <trkpt lat="49.62943" lon="4.98851">
        <ele>257.29</ele>
        <time>2019-05-27T14:36:13Z</time>
      </trkpt>
      <trkpt lat="49.62956" lon="4.98837">
        <ele>255.37</ele>
        <time>2019-05-27T14:36:29Z</time>
      </trkpt>
      <trkpt lat="49.62965" lon="4.98826">
        <ele>256.33</ele>
        <time>2019-05-27T14:36:44Z</time>
      </trkpt>
      <trkpt lat="49.62973" lon="4.9882">
        <ele>258.73</ele>
        <time>2019-05-27T14:36:57Z</time>
      </trkpt>
      <trkpt lat="49.62986" lon="4.98811">
        <ele>261.14</ele>
        <time>2019-05-27T14:37:15Z</time>
      </trkpt>
      <trkpt lat="49.63005" lon="4.98799">
        <ele>254.41</ele>
        <time>2019-05-27T14:37:33Z</time>
      </trkpt>
      <trkpt lat="49.63023" lon="4.98778">
        <ele>250.56</ele>
        <time>2019-05-27T14:37:49Z</time>
      </trkpt>
      <trkpt lat="49.63034" lon="4.98769">
        <ele>252.48</ele>
        <time>2019-05-27T14:38:07Z</time>
      </trkpt>
      <trkpt lat="49.63042" lon="4.98764">
        <ele>258.25</ele>
        <time>2019-05-27T14:38:27Z</time>
      </trkpt>
      <trkpt lat="49.63058" lon="4.98757">
        <ele>271.71</ele>
        <time>2019-05-27T14:38:51Z</time>
      </trkpt>
      <trkpt lat="49.63063" lon="4.98759">
        <ele>276.04</ele>
        <time>2019-05-27T14:39:12Z</time>
      </trkpt>
      <trkpt lat="49.63064" lon="4.9876">
        <ele>277</ele>
        <time>2019-05-27T14:39:33Z</time>
      </trkpt>
      <trkpt lat="49.63064" lon="4.9876">
        <ele>276.52</ele>
        <time>2019-05-27T14:39:56Z</time>
      </trkpt>
      <trkpt lat="49.63064" lon="4.98761">
        <ele>277.48</ele>
        <time>2019-05-27T14:40:27Z</time>
      </trkpt>
      <trkpt lat="49.63065" lon="4.9876">
        <ele>278.44</ele>
        <time>2019-05-27T14:40:53Z</time>
      </trkpt>
      <trkpt lat="49.63066" lon="4.98761">
        <ele>278.44</ele>
        <time>2019-05-27T14:41:21Z</time>
      </trkpt>
      <trkpt lat="49.63066" lon="4.98762">
        <ele>279.4</ele>
        <time>2019-05-27T14:41:53Z</time>
      </trkpt>
      <trkpt lat="49.63067" lon="4.98762">
        <ele>279.88</ele>
        <time>2019-05-27T14:42:17Z</time>
      </trkpt>
      <trkpt lat="49.63067" lon="4.98761">
        <ele>280.36</ele>
        <time>2019-05-27T14:42:44Z</time>
      </trkpt>
      <trkpt lat="49.63067" lon="4.98761">
        <ele>280.84</ele>
        <time>2019-05-27T14:43:07Z</time>
      </trkpt>
      <trkpt lat="49.63067" lon="4.9876">
        <ele>280.84</ele>
        <time>2019-05-27T14:43:28Z</time>
      </trkpt>
      <trkpt lat="49.63066" lon="4.98757">
        <ele>280.84</ele>
        <time>2019-05-27T14:43:45Z</time>
      </trkpt>
      <trkpt lat="49.63064" lon="4.98751">
        <ele>280.84</ele>
        <time>2019-05-27T14:44:03Z</time>
      </trkpt>
      <trkpt lat="49.63059" lon="4.98738">
        <ele>281.32</ele>
        <time>2019-05-27T14:44:22Z</time>
      </trkpt>
      <trkpt lat="49.63051" lon="4.98723">
        <ele>282.28</ele>
        <time>2019-05-27T14:44:39Z</time>
      </trkpt>
      <trkpt lat="49.63042" lon="4.98703">
        <ele>281.8</ele>
        <time>2019-05-27T14:44:56Z</time>
      </trkpt>
      <trkpt lat="49.63032" lon="4.98681">
        <ele>279.88</ele>
        <time>2019-05-27T14:45:15Z</time>
      </trkpt>
      <trkpt lat="49.63028" lon="4.9866">
        <ele>277.48</ele>
        <time>2019-05-27T14:45:32Z</time>
      </trkpt>
      <trkpt lat="49.63024" lon="4.98628">
        <ele>271.71</ele>
        <time>2019-05-27T14:45:50Z</time>
      </trkpt>
      <trkpt lat="49.63024" lon="4.98599">
        <ele>270.75</ele>
        <time>2019-05-27T14:46:06Z</time>
      </trkpt>
      <trkpt lat="49.63023" lon="4.98577">
        <ele>269.79</ele>
        <time>2019-05-27T14:46:22Z</time>
      </trkpt>
      <trkpt lat="49.63022" lon="4.98568">
        <ele>267.86</ele>
        <time>2019-05-27T14:46:35Z</time>
      </trkpt>
      <trkpt lat="49.63022" lon="4.98561">
        <ele>267.38</ele>
        <time>2019-05-27T14:46:51Z</time>
      </trkpt>
      <trkpt lat="49.63023" lon="4.98551">
        <ele>266.42</ele>
        <time>2019-05-27T14:47:10Z</time>
      </trkpt>
      <trkpt lat="49.63027" lon="4.98543">
        <ele>268.35</ele>
        <time>2019-05-27T14:47:24Z</time>
      </trkpt>
      <trkpt lat="49.6303" lon="4.98535">
        <ele>268.35</ele>
        <time>2019-05-27T14:47:40Z</time>
      </trkpt>
      <trkpt lat="49.63035" lon="4.98513">
        <ele>261.62</ele>
        <time>2019-05-27T14:47:59Z</time>
      </trkpt>
      <trkpt lat="49.63039" lon="4.98497">
        <ele>258.73</ele>
        <time>2019-05-27T14:48:15Z</time>
      </trkpt>
      <trkpt lat="49.63041" lon="4.98486">
        <ele>256.81</ele>
        <time>2019-05-27T14:48:33Z</time>
      </trkpt>
      <trkpt lat="49.63042" lon="4.98481">
        <ele>255.85</ele>
        <time>2019-05-27T14:48:51Z</time>
      </trkpt>
      <trkpt lat="49.63045" lon="4.98477">
        <ele>254.89</ele>
        <time>2019-05-27T14:49:09Z</time>
      </trkpt>
      <trkpt lat="49.63047" lon="4.98473">
        <ele>254.41</ele>
        <time>2019-05-27T14:49:28Z</time>
      </trkpt>
      <trkpt lat="49.6305" lon="4.98471">
        <ele>253.44</ele>
        <time>2019-05-27T14:49:45Z</time>
      </trkpt>
      <trkpt lat="49.63055" lon="4.98467">
        <ele>251.52</ele>
        <time>2019-05-27T14:50:04Z</time>
      </trkpt>
      <trkpt lat="49.63061" lon="4.98464">
        <ele>248.16</ele>
        <time>2019-05-27T14:50:25Z</time>
      </trkpt>
      <trkpt lat="49.63067" lon="4.98461">
        <ele>243.35</ele>
        <time>2019-05-27T14:50:44Z</time>
      </trkpt>
      <trkpt lat="49.63076" lon="4.9846">
        <ele>239.51</ele>
        <time>2019-05-27T14:51:00Z</time>
      </trkpt>
      <trkpt lat="49.63094" lon="4.9845">
        <ele>236.14</ele>
        <time>2019-05-27T14:51:18Z</time>
      </trkpt>
      <trkpt lat="49.63111" lon="4.98444">
        <ele>233.26</ele>
        <time>2019-05-27T14:51:36Z</time>
      </trkpt>
      <trkpt lat="49.63122" lon="4.98443">
        <ele>232.3</ele>
        <time>2019-05-27T14:51:51Z</time>
      </trkpt>
      <trkpt lat="49.63139" lon="4.98438">
        <ele>231.81</ele>
        <time>2019-05-27T14:52:11Z</time>
      </trkpt>
      <trkpt lat="49.63151" lon="4.98435">
        <ele>229.89</ele>
        <time>2019-05-27T14:52:26Z</time>
      </trkpt>
      <trkpt lat="49.63164" lon="4.98429">
        <ele>229.41</ele>
        <time>2019-05-27T14:52:47Z</time>
      </trkpt>
      <trkpt lat="49.63174" lon="4.98423">
        <ele>228.93</ele>
        <time>2019-05-27T14:53:07Z</time>
      </trkpt>
      <trkpt lat="49.6318" lon="4.98421">
        <ele>227.97</ele>
        <time>2019-05-27T14:53:21Z</time>
      </trkpt>
      <trkpt lat="49.63188" lon="4.98416">
        <ele>227.01</ele>
        <time>2019-05-27T14:53:39Z</time>
      </trkpt>
      <trkpt lat="49.63201" lon="4.98406">
        <ele>224.61</ele>
        <time>2019-05-27T14:53:57Z</time>
      </trkpt>
      <trkpt lat="49.6322" lon="4.98388">
        <ele>218.84</ele>
        <time>2019-05-27T14:54:11Z</time>
      </trkpt>
      <trkpt lat="49.63256" lon="4.98361">
        <ele>212.59</ele>
        <time>2019-05-27T14:54:27Z</time>
      </trkpt>
      <trkpt lat="49.63275" lon="4.98348">
        <ele>213.55</ele>
        <time>2019-05-27T14:54:40Z</time>
      </trkpt>
      <trkpt lat="49.63277" lon="4.98348">
        <ele>213.07</ele>
        <time>2019-05-27T14:54:45Z</time>
      </trkpt>
      <trkpt lat="49.63293" lon="4.98349">
        <ele>214.51</ele>
        <time>2019-05-27T14:55:01Z</time>
      </trkpt>
      <trkpt lat="49.63306" lon="4.98351">
        <ele>214.99</ele>
        <time>2019-05-27T14:55:16Z</time>
      </trkpt>
      <trkpt lat="49.63326" lon="4.98354">
        <ele>211.15</ele>
        <time>2019-05-27T14:55:35Z</time>
      </trkpt>
      <trkpt lat="49.63341" lon="4.98349">
        <ele>206.34</ele>
        <time>2019-05-27T14:55:50Z</time>
      </trkpt>
      <trkpt lat="49.63356" lon="4.98343">
        <ele>202.49</ele>
        <time>2019-05-27T14:56:07Z</time>
      </trkpt>
      <trkpt lat="49.63369" lon="4.98334">
        <ele>200.09</ele>
        <time>2019-05-27T14:56:23Z</time>
      </trkpt>
      <trkpt lat="49.63383" lon="4.98324">
        <ele>197.21</ele>
        <time>2019-05-27T14:56:41Z</time>
      </trkpt>
      <trkpt lat="49.63392" lon="4.98316">
        <ele>197.21</ele>
        <time>2019-05-27T14:56:58Z</time>
      </trkpt>
      <trkpt lat="49.63403" lon="4.98306">
        <ele>193.36</ele>
        <time>2019-05-27T14:57:13Z</time>
      </trkpt>
      <trkpt lat="49.63405" lon="4.98303">
        <ele>192.4</ele>
        <time>2019-05-27T14:57:27Z</time>
      </trkpt>
      <trkpt lat="49.63409" lon="4.98298">
        <ele>190</ele>
        <time>2019-05-27T14:57:44Z</time>
      </trkpt>
      <trkpt lat="49.63416" lon="4.98288">
        <ele>188.08</ele>
        <time>2019-05-27T14:57:57Z</time>
      </trkpt>
      <trkpt lat="49.63419" lon="4.98282">
        <ele>187.59</ele>
        <time>2019-05-27T14:58:12Z</time>
      </trkpt>
      <trkpt lat="49.63429" lon="4.98264">
        <ele>184.23</ele>
        <time>2019-05-27T14:58:28Z</time>
      </trkpt>
      <trkpt lat="49.63437" lon="4.98253">
        <ele>182.79</ele>
        <time>2019-05-27T14:58:36Z</time>
      </trkpt>
      <trkpt lat="49.6345" lon="4.98233">
        <ele>181.83</ele>
        <time>2019-05-27T14:58:52Z</time>
      </trkpt>
      <trkpt lat="49.63464" lon="4.98208">
        <ele>178.94</ele>
        <time>2019-05-27T14:59:09Z</time>
      </trkpt>
      <trkpt lat="49.63473" lon="4.98183">
        <ele>176.54</ele>
        <time>2019-05-27T14:59:26Z</time>
      </trkpt>
      <trkpt lat="49.63479" lon="4.9816">
        <ele>175.58</ele>
        <time>2019-05-27T14:59:43Z</time>
      </trkpt>
      <trkpt lat="49.63489" lon="4.98143">
        <ele>172.69</ele>
        <time>2019-05-27T14:59:58Z</time>
      </trkpt>
      <trkpt lat="49.6349" lon="4.98139">
        <ele>172.69</ele>
        <time>2019-05-27T15:00:01Z</time>
      </trkpt>
      <trkpt lat="49.63486" lon="4.98117">
        <ele>175.58</ele>
        <time>2019-05-27T15:00:17Z</time>
      </trkpt>
      <trkpt lat="49.63477" lon="4.98099">
        <ele>172.69</ele>
        <time>2019-05-27T15:00:33Z</time>
      </trkpt>
      <trkpt lat="49.63465" lon="4.98081">
        <ele>172.69</ele>
        <time>2019-05-27T15:00:51Z</time>
      </trkpt>
      <trkpt lat="49.63454" lon="4.98059">
        <ele>172.21</ele>
        <time>2019-05-27T15:01:10Z</time>
      </trkpt>
      <trkpt lat="49.63453" lon="4.98056">
        <ele>172.21</ele>
        <time>2019-05-27T15:01:28Z</time>
      </trkpt>
      <trkpt lat="49.63454" lon="4.98052">
        <ele>172.69</ele>
        <time>2019-05-27T15:01:44Z</time>
      </trkpt>
      <trkpt lat="49.63455" lon="4.9805">
        <ele>172.69</ele>
        <time>2019-05-27T15:02:00Z</time>
      </trkpt>
    </trkseg>
  </trk>
</gpx>